Time,TemperatureF,DewpointF,PressureIn,WindDirection,WindDirectionDegrees,WindSpeedMPH,WindSpeedGustMPH,Humidity,HourlyPrecipIn,Conditions,Clouds,dailyrainin,SoftwareType,DateUTC
2013-05-05 00:00:00,70.7,67.6,29.82,WNW,294,6.0,9.0,90,0.00,,,0.00,Wunderground v.1.15,2013-05-05 04:00:00,
2013-05-05 00:01:00,70.7,67.6,29.82,NW,314,6.0,9.0,90,0.00,,,0.00,Wunderground v.1.15,2013-05-05 04:01:00,
2013-05-05 00:02:00,70.7,67.6,29.82,WNW,284,6.0,9.0,90,0.00,,,0.00,Wunderground v.1.15,2013-05-05 04:02:00,
2013-05-05 00:03:00,70.7,67.6,29.82,West,276,6.0,9.0,90,0.00,,,0.00,Wunderground v.1.15,2013-05-05 04:03:00,
2013-05-05 00:05:00,70.7,67.6,29.82,WSW,257,6.0,9.0,90,0.00,,,0.00,Wunderground v.1.15,2013-05-05 04:05:00,
2013-05-05 00:07:00,70.7,67.6,29.82,West,262,5.0,9.0,90,0.00,,,0.00,Wunderground v.1.15,2013-05-05 04:07:00,
2013-05-05 00:08:00,70.6,67.5,29.82,NW,317,6.0,9.0,90,0.00,,,0.00,Wunderground v.1.15,2013-05-05 04:08:00,
2013-05-05 00:09:00,70.6,67.5,29.82,WNW,283,6.0,6.0,90,0.00,,,0.00,Wunderground v.1.15,2013-05-05 04:09:00,
2013-05-05 00:13:00,70.6,67.8,29.82,West,270,6.0,9.0,91,0.00,,,0.00,Wunderground v.1.15,2013-05-05 04:13:00,
2013-05-05 00:14:00,70.6,67.8,29.82,WNW,291,6.0,9.0,91,0.00,,,0.00,Wunderground v.1.15,2013-05-05 04:14:00,
2013-05-05 00:16:00,70.5,67.7,29.82,West,274,7.0,9.0,91,0.00,,,0.00,Wunderground v.1.15,2013-05-05 04:16:00,
2013-05-05 00:18:00,70.5,67.7,29.82,WNW,287,7.0,9.0,91,0.00,,,0.00,Wunderground v.1.15,2013-05-05 04:18:00,
2013-05-05 00:20:00,70.4,67.6,29.82,WNW,301,6.0,6.0,91,0.00,,,0.00,Wunderground v.1.15,2013-05-05 04:20:00,
2013-05-05 00:21:00,70.3,67.5,29.82,West,280,6.0,11.0,91,0.00,,,0.00,Wunderground v.1.15,2013-05-05 04:21:00,
2013-05-05 00:23:00,70.2,67.4,29.82,WSW,257,7.0,13.0,91,0.00,,,0.00,Wunderground v.1.15,2013-05-05 04:23:00,
2013-05-05 00:24:00,70.2,67.4,29.82,WNW,284,7.0,13.0,91,0.00,,,0.00,Wunderground v.1.15,2013-05-05 04:24:00,
2013-05-05 00:25:00,70.2,67.4,29.82,WNW,300,7.0,13.0,91,0.00,,,0.00,Wunderground v.1.15,2013-05-05 04:25:00,
2013-05-05 00:28:00,70.1,67.3,29.81,WSW,255,6.0,13.0,91,0.00,,,0.00,Wunderground v.1.15,2013-05-05 04:28:00,
2013-05-05 00:30:00,70.0,67.3,29.81,WNW,285,7.0,7.0,91,0.00,,,0.00,Wunderground v.1.15,2013-05-05 04:30:00,
2013-05-05 00:32:00,70.0,67.3,29.82,West,281,7.0,13.0,91,0.00,,,0.00,Wunderground v.1.15,2013-05-05 04:32:00,
2013-05-05 00:33:00,69.9,67.2,29.81,WNW,283,7.0,13.0,91,0.00,,,0.00,Wunderground v.1.15,2013-05-05 04:33:00,
2013-05-05 00:35:00,69.9,67.5,29.81,West,281,7.0,13.0,92,0.00,,,0.00,Wunderground v.1.15,2013-05-05 04:35:00,
2013-05-05 00:37:00,69.9,67.5,29.81,WNW,291,7.0,13.0,92,0.00,,,0.00,Wunderground v.1.15,2013-05-05 04:37:00,
2013-05-05 00:38:00,69.9,67.5,29.81,WNW,298,7.0,13.0,92,0.00,,,0.00,Wunderground v.1.15,2013-05-05 04:38:00,
2013-05-05 00:39:00,69.9,67.5,29.81,WNW,297,7.0,7.0,92,0.00,,,0.00,Wunderground v.1.15,2013-05-05 04:39:00,
2013-05-05 00:43:00,69.8,67.4,29.81,WSW,246,6.0,7.0,92,0.00,,,0.00,Wunderground v.1.15,2013-05-05 04:43:00,
2013-05-05 00:45:00,69.7,67.3,29.81,WNW,287,6.0,7.0,92,0.00,,,0.00,Wunderground v.1.15,2013-05-05 04:45:00,
2013-05-05 00:47:00,69.7,67.3,29.81,WSW,257,6.0,11.0,92,0.00,,,0.00,Wunderground v.1.15,2013-05-05 04:47:00,
2013-05-05 00:49:00,69.6,67.5,29.81,WNW,297,6.0,11.0,93,0.00,,,0.00,Wunderground v.1.15,2013-05-05 04:49:00,
2013-05-05 00:50:00,69.6,67.5,29.81,West,271,6.0,6.0,93,0.00,,,0.00,Wunderground v.1.15,2013-05-05 04:50:00,
2013-05-05 00:53:00,69.5,67.1,29.81,WNW,294,7.0,7.0,92,0.00,,,0.00,Wunderground v.1.15,2013-05-05 04:53:00,
2013-05-05 00:55:00,69.4,67.0,29.81,WNW,285,7.0,13.0,92,0.00,,,0.00,Wunderground v.1.15,2013-05-05 04:55:00,
2013-05-05 00:56:00,69.4,67.0,29.81,NNW,340,7.0,13.0,92,0.00,,,0.00,Wunderground v.1.15,2013-05-05 04:56:00,
2013-05-05 00:59:00,69.5,67.1,29.82,WNW,289,7.0,13.0,92,0.00,,,0.00,Wunderground v.1.15,2013-05-05 04:59:00,
2013-05-05 01:00:00,69.4,67.0,29.82,WSW,237,7.0,7.0,92,0.00,,,0.01,Wunderground v.1.15,2013-05-05 05:00:00,
2013-05-05 01:04:00,69.2,67.1,29.81,WNW,284,7.0,8.0,93,0.19,,,0.02,Wunderground v.1.15,2013-05-05 05:04:00,
2013-05-05 01:05:00,69.2,67.1,29.81,West,260,7.0,8.0,93,0.17,,,0.02,Wunderground v.1.15,2013-05-05 05:05:00,
2013-05-05 01:10:00,69.0,66.9,29.81,WNW,285,6.0,8.0,93,0.08,,,0.02,Wunderground v.1.15,2013-05-05 05:10:00,
2013-05-05 01:11:00,69.0,66.9,29.81,WSW,245,6.0,8.0,93,0.07,,,0.02,Wunderground v.1.15,2013-05-05 05:11:00,
2013-05-05 01:12:00,69.0,67.2,29.81,North,355,6.0,8.0,94,0.06,,,0.02,Wunderground v.1.15,2013-05-05 05:12:00,
2013-05-05 01:13:00,69.0,67.2,29.81,NW,318,5.0,8.0,94,0.05,,,0.02,Wunderground v.1.15,2013-05-05 05:13:00,
2013-05-05 01:18:00,69.0,67.2,29.81,West,277,5.0,8.0,94,0.04,,,0.03,Wunderground v.1.15,2013-05-05 05:18:00,
2013-05-05 01:20:00,68.8,66.7,29.81,SW,236,5.0,11.0,93,0.04,,,0.03,Wunderground v.1.15,2013-05-05 05:20:00,
2013-05-05 01:23:00,68.5,66.4,29.81,WNW,296,6.0,11.0,93,0.04,,,0.03,Wunderground v.1.15,2013-05-05 05:23:00,
2013-05-05 01:25:00,68.4,66.3,29.81,West,277,5.0,11.0,93,0.04,,,0.03,Wunderground v.1.15,2013-05-05 05:25:00,
2013-05-05 01:26:00,68.4,66.3,29.81,NNW,329,6.0,11.0,93,0.04,,,0.03,Wunderground v.1.15,2013-05-05 05:26:00,
2013-05-05 01:28:00,68.3,66.2,29.81,West,269,6.0,11.0,93,0.04,,,0.03,Wunderground v.1.15,2013-05-05 05:28:00,
2013-05-05 01:31:00,68.3,66.5,29.81,WNW,293,5.0,6.0,94,0.04,,,0.03,Wunderground v.1.15,2013-05-05 05:31:00,
2013-05-05 01:34:00,68.4,66.6,29.81,West,277,6.0,13.0,94,0.00,,,0.03,Wunderground v.1.15,2013-05-05 05:34:00,
2013-05-05 01:36:00,68.4,66.6,29.81,West,273,6.0,13.0,94,0.00,,,0.03,Wunderground v.1.15,2013-05-05 05:36:00,
2013-05-05 01:37:00,68.5,66.7,29.81,West,266,6.0,13.0,94,0.00,,,0.03,Wunderground v.1.15,2013-05-05 05:37:00,
2013-05-05 01:42:00,68.5,66.4,29.80,WSW,248,7.0,9.0,93,0.00,,,0.03,Wunderground v.1.15,2013-05-05 05:42:00,
2013-05-05 01:43:00,68.5,66.4,29.80,West,259,7.0,11.0,93,0.00,,,0.03,Wunderground v.1.15,2013-05-05 05:43:00,
2013-05-05 01:48:00,68.4,66.3,29.80,WNW,301,6.0,11.0,93,0.00,,,0.03,Wunderground v.1.15,2013-05-05 05:48:00,
2013-05-05 01:49:00,68.4,66.3,29.80,WSW,239,6.0,11.0,93,0.00,,,0.03,Wunderground v.1.15,2013-05-05 05:49:00,
2013-05-05 01:50:00,68.4,66.3,29.80,West,270,6.0,8.0,93,0.00,,,0.03,Wunderground v.1.15,2013-05-05 05:50:00,
2013-05-05 01:54:00,68.3,66.2,29.81,WNW,283,5.0,8.0,93,0.00,,,0.03,Wunderground v.1.15,2013-05-05 05:54:00,
2013-05-05 01:57:00,68.3,65.9,29.80,West,273,6.0,8.0,92,0.00,,,0.03,Wunderground v.1.15,2013-05-05 05:57:00,
2013-05-05 01:58:00,68.4,66.0,29.81,WNW,298,5.0,8.0,92,0.00,,,0.03,Wunderground v.1.15,2013-05-05 05:58:00,
2013-05-05 02:00:00,68.4,66.0,29.81,WNW,285,5.0,7.0,92,0.00,,,0.03,Wunderground v.1.15,2013-05-05 06:00:00,
2013-05-05 02:01:00,68.4,66.0,29.80,WSW,249,6.0,7.0,92,0.00,,,0.03,Wunderground v.1.15,2013-05-05 06:01:00,
2013-05-05 02:03:00,68.5,66.1,29.81,WNW,284,6.0,9.0,92,0.00,,,0.03,Wunderground v.1.15,2013-05-05 06:03:00,
2013-05-05 02:04:00,68.5,66.1,29.80,West,280,5.0,9.0,92,0.00,,,0.03,Wunderground v.1.15,2013-05-05 06:04:00,
2013-05-05 02:08:00,68.5,66.1,29.80,West,264,6.0,9.0,92,0.00,,,0.03,Wunderground v.1.15,2013-05-05 06:08:00,
2013-05-05 02:09:00,68.5,66.1,29.80,WNW,301,6.0,9.0,92,0.00,,,0.03,Wunderground v.1.15,2013-05-05 06:09:00,
2013-05-05 02:10:00,68.5,66.1,29.80,NW,305,6.0,9.0,92,0.00,,,0.03,Wunderground v.1.15,2013-05-05 06:10:00,
2013-05-05 02:11:00,68.5,66.1,29.80,WNW,283,6.0,9.0,92,0.00,,,0.03,Wunderground v.1.15,2013-05-05 06:11:00,
2013-05-05 02:13:00,68.5,66.1,29.80,West,274,6.0,9.0,92,0.00,,,0.03,Wunderground v.1.15,2013-05-05 06:13:00,
2013-05-05 02:16:00,68.4,65.7,29.80,WNW,289,7.0,9.0,91,0.00,,,0.03,Wunderground v.1.15,2013-05-05 06:16:00,
2013-05-05 02:17:00,68.4,65.7,29.80,West,280,7.0,12.0,91,0.00,,,0.03,Wunderground v.1.15,2013-05-05 06:17:00,
2013-05-05 02:18:00,68.5,66.1,29.80,West,270,7.0,12.0,92,0.00,,,0.03,Wunderground v.1.15,2013-05-05 06:18:00,
2013-05-05 02:21:00,68.5,66.1,29.80,WNW,292,7.0,8.0,92,0.00,,,0.03,Wunderground v.1.15,2013-05-05 06:21:00,
2013-05-05 02:23:00,68.5,66.1,29.80,WNW,284,7.0,10.0,92,0.00,,,0.03,Wunderground v.1.15,2013-05-05 06:23:00,
2013-05-05 02:24:00,68.5,66.1,29.80,WNW,294,7.0,10.0,92,0.00,,,0.03,Wunderground v.1.15,2013-05-05 06:24:00,
2013-05-05 02:25:00,68.5,66.1,29.80,West,281,6.0,10.0,92,0.00,,,0.03,Wunderground v.1.15,2013-05-05 06:25:00,
2013-05-05 02:29:00,68.4,65.7,29.80,WNW,301,6.0,7.0,91,0.00,,,0.03,Wunderground v.1.15,2013-05-05 06:29:00,
2013-05-05 02:30:00,68.4,65.7,29.80,WSW,246,6.0,7.0,91,0.00,,,0.03,Wunderground v.1.15,2013-05-05 06:30:00,
2013-05-05 02:31:00,68.5,66.1,29.80,WSW,255,6.0,7.0,92,0.00,,,0.03,Wunderground v.1.15,2013-05-05 06:31:00,
2013-05-05 02:35:00,68.4,65.7,29.79,WSW,250,6.0,7.0,91,0.00,,,0.03,Wunderground v.1.15,2013-05-05 06:35:00,
2013-05-05 02:37:00,68.4,65.7,29.79,SW,235,6.0,10.0,91,0.00,,,0.03,Wunderground v.1.15,2013-05-05 06:37:00,
2013-05-05 02:38:00,68.4,65.7,29.80,WNW,294,6.0,10.0,91,0.00,,,0.03,Wunderground v.1.15,2013-05-05 06:38:00,
2013-05-05 02:39:00,68.3,65.6,29.80,West,264,6.0,10.0,91,0.00,,,0.03,Wunderground v.1.15,2013-05-05 06:39:00,
2013-05-05 02:41:00,68.3,65.6,29.80,WNW,284,6.0,8.0,91,0.00,,,0.03,Wunderground v.1.15,2013-05-05 06:41:00,
2013-05-05 02:43:00,68.4,65.7,29.79,NW,313,6.0,8.0,91,0.00,,,0.03,Wunderground v.1.15,2013-05-05 06:43:00,
2013-05-05 02:44:00,68.4,65.7,29.80,WNW,287,5.0,8.0,91,0.00,,,0.03,Wunderground v.1.15,2013-05-05 06:44:00,
2013-05-05 02:45:00,68.4,65.7,29.79,WNW,301,6.0,14.0,91,0.00,,,0.03,Wunderground v.1.15,2013-05-05 06:45:00,
2013-05-05 02:47:00,68.4,65.7,29.80,WNW,285,5.0,14.0,91,0.00,,,0.03,Wunderground v.1.15,2013-05-05 06:47:00,
2013-05-05 02:49:00,68.5,65.8,29.79,West,278,6.0,6.0,91,0.00,,,0.03,Wunderground v.1.15,2013-05-05 06:49:00,
2013-05-05 02:52:00,68.5,65.8,29.79,West,259,5.0,6.0,91,0.00,,,0.03,Wunderground v.1.15,2013-05-05 06:52:00,
2013-05-05 02:53:00,68.5,65.8,29.79,WSW,249,5.0,6.0,91,0.00,,,0.03,Wunderground v.1.15,2013-05-05 06:53:00,
2013-05-05 02:55:00,68.5,65.8,29.79,WNW,298,5.0,6.0,91,0.00,,,0.03,Wunderground v.1.15,2013-05-05 06:55:00,
2013-05-05 02:56:00,68.5,65.8,29.79,WNW,292,5.0,6.0,91,0.00,,,0.03,Wunderground v.1.15,2013-05-05 06:56:00,
2013-05-05 03:00:00,68.4,65.7,29.79,NW,312,5.0,12.0,91,0.00,,,0.03,Wunderground v.1.15,2013-05-05 07:00:00,
2013-05-05 03:01:00,68.4,65.7,29.79,NW,304,5.0,12.0,91,0.00,,,0.03,Wunderground v.1.15,2013-05-05 07:01:00,
2013-05-05 03:03:00,68.4,65.7,29.79,WNW,284,5.0,12.0,91,0.00,,,0.03,Wunderground v.1.15,2013-05-05 07:03:00,
2013-05-05 03:04:00,68.3,65.6,29.79,WNW,291,5.0,12.0,91,0.00,,,0.03,Wunderground v.1.15,2013-05-05 07:04:00,
2013-05-05 03:07:00,68.3,65.6,29.79,NW,321,5.0,12.0,91,0.00,,,0.03,Wunderground v.1.15,2013-05-05 07:07:00,
2013-05-05 03:08:00,68.2,65.2,29.79,WSW,243,6.0,12.0,90,0.00,,,0.03,Wunderground v.1.15,2013-05-05 07:08:00,
2013-05-05 03:13:00,68.3,65.3,29.79,WNW,294,6.0,8.0,90,0.00,,,0.03,Wunderground v.1.15,2013-05-05 07:13:00,
2013-05-05 03:14:00,68.3,65.3,29.79,WSW,244,6.0,9.0,90,0.00,,,0.03,Wunderground v.1.15,2013-05-05 07:14:00,
2013-05-05 03:15:00,68.3,65.3,29.79,WNW,301,6.0,9.0,90,0.00,,,0.03,Wunderground v.1.15,2013-05-05 07:15:00,
2013-05-05 03:16:00,68.3,65.3,29.79,NW,305,6.0,9.0,90,0.00,,,0.03,Wunderground v.1.15,2013-05-05 07:16:00,
2013-05-05 03:21:00,68.4,65.0,29.79,NW,316,6.0,9.0,89,0.00,,,0.03,Wunderground v.1.15,2013-05-05 07:21:00,
2013-05-05 03:22:00,68.4,65.0,29.79,NW,319,6.0,9.0,89,0.00,,,0.03,Wunderground v.1.15,2013-05-05 07:22:00,
2013-05-05 03:23:00,68.4,65.0,29.79,WNW,297,6.0,9.0,89,0.00,,,0.03,Wunderground v.1.15,2013-05-05 07:23:00,
2013-05-05 03:26:00,68.4,65.0,29.79,NW,307,6.0,9.0,89,0.00,,,0.03,Wunderground v.1.15,2013-05-05 07:26:00,
2013-05-05 03:27:00,68.5,65.1,29.79,West,277,6.0,9.0,89,0.00,,,0.03,Wunderground v.1.15,2013-05-05 07:27:00,
2013-05-05 03:29:00,68.5,65.1,29.79,WNW,289,6.0,9.0,89,0.00,,,0.03,Wunderground v.1.15,2013-05-05 07:29:00,
2013-05-05 03:30:00,68.5,65.1,29.79,WNW,297,6.0,10.0,89,0.00,,,0.03,Wunderground v.1.15,2013-05-05 07:30:00,
2013-05-05 03:33:00,68.6,65.2,29.79,WNW,285,6.0,14.0,89,0.00,,,0.03,Wunderground v.1.15,2013-05-05 07:33:00,
2013-05-05 03:34:00,68.6,65.2,29.79,NW,307,6.0,14.0,89,0.00,,,0.03,Wunderground v.1.15,2013-05-05 07:34:00,
2013-05-05 03:35:00,68.6,65.2,29.79,WNW,289,6.0,14.0,89,0.00,,,0.03,Wunderground v.1.15,2013-05-05 07:35:00,
2013-05-05 03:36:00,68.6,65.2,29.79,WNW,288,6.0,14.0,89,0.00,,,0.03,Wunderground v.1.15,2013-05-05 07:36:00,
2013-05-05 03:40:00,68.6,64.9,29.79,WNW,291,7.0,7.0,88,0.00,,,0.03,Wunderground v.1.15,2013-05-05 07:40:00,
2013-05-05 03:42:00,68.7,65.0,29.79,WNW,288,7.0,9.0,88,0.00,,,0.03,Wunderground v.1.15,2013-05-05 07:42:00,
2013-05-05 03:43:00,68.7,65.0,29.79,West,265,7.0,9.0,88,0.00,,,0.03,Wunderground v.1.15,2013-05-05 07:43:00,
2013-05-05 03:45:00,68.7,65.0,29.79,WNW,285,7.0,9.0,88,0.00,,,0.03,Wunderground v.1.15,2013-05-05 07:45:00,
2013-05-05 03:48:00,68.8,64.8,29.79,WNW,287,7.0,9.0,87,0.00,,,0.03,Wunderground v.1.15,2013-05-05 07:48:00,
2013-05-05 03:49:00,68.8,64.8,29.79,WNW,302,6.0,7.0,87,0.00,,,0.03,Wunderground v.1.15,2013-05-05 07:49:00,
2013-05-05 03:53:00,68.9,64.9,29.79,West,273,6.0,7.0,87,0.00,,,0.03,Wunderground v.1.15,2013-05-05 07:53:00,
2013-05-05 03:55:00,69.0,64.6,29.79,WNW,288,6.0,10.0,86,0.00,,,0.03,Wunderground v.1.15,2013-05-05 07:55:00,
2013-05-05 03:58:00,69.0,64.6,29.79,WSW,246,6.0,10.0,86,0.00,,,0.03,Wunderground v.1.15,2013-05-05 07:58:00,
2013-05-05 03:59:00,69.0,64.6,29.79,West,281,6.0,11.0,86,0.00,,,0.03,Wunderground v.1.15,2013-05-05 07:59:00,
2013-05-05 04:01:00,69.1,64.4,29.80,NW,311,7.0,12.0,85,0.00,,,0.03,Wunderground v.1.15,2013-05-05 08:01:00,
2013-05-05 04:03:00,69.1,64.4,29.79,West,263,7.0,12.0,85,0.00,,,0.03,Wunderground v.1.15,2013-05-05 08:03:00,
2013-05-05 04:05:00,69.2,64.2,29.79,WNW,285,7.0,12.0,84,0.00,,,0.03,Wunderground v.1.15,2013-05-05 08:05:00,
2013-05-05 04:08:00,69.2,64.5,29.79,WSW,239,7.0,12.0,85,0.00,,,0.03,Wunderground v.1.15,2013-05-05 08:08:00,
2013-05-05 04:11:00,69.2,64.2,29.79,West,281,8.0,10.0,84,0.00,,,0.03,Wunderground v.1.15,2013-05-05 08:11:00,
2013-05-05 04:12:00,69.2,64.2,29.79,West,280,8.0,10.0,84,0.00,,,0.03,Wunderground v.1.15,2013-05-05 08:12:00,
2013-05-05 04:16:00,69.0,64.0,29.80,West,276,7.0,10.0,84,0.00,,,0.03,Wunderground v.1.15,2013-05-05 08:16:00,
2013-05-05 04:17:00,69.0,63.6,29.80,West,259,7.0,10.0,83,0.00,,,0.03,Wunderground v.1.15,2013-05-05 08:17:00,
2013-05-05 04:18:00,69.0,63.6,29.80,West,277,8.0,13.0,83,0.00,,,0.03,Wunderground v.1.15,2013-05-05 08:18:00,
2013-05-05 04:19:00,69.0,63.3,29.80,WNW,285,8.0,13.0,82,0.00,,,0.03,Wunderground v.1.15,2013-05-05 08:19:00,
2013-05-05 04:21:00,69.0,63.3,29.80,West,280,8.0,12.0,82,0.00,,,0.03,Wunderground v.1.15,2013-05-05 08:21:00,
2013-05-05 04:24:00,69.0,63.3,29.80,NW,305,8.0,12.0,82,0.00,,,0.03,Wunderground v.1.15,2013-05-05 08:24:00,
2013-05-05 04:26:00,69.0,62.9,29.80,West,281,7.0,12.0,81,0.00,,,0.03,Wunderground v.1.15,2013-05-05 08:26:00,
2013-05-05 04:28:00,69.0,62.9,29.80,West,273,7.0,12.0,81,0.00,,,0.03,Wunderground v.1.15,2013-05-05 08:28:00,
2013-05-05 04:31:00,68.9,62.1,29.80,WNW,287,7.0,15.0,79,0.00,,,0.03,Wunderground v.1.15,2013-05-05 08:31:00,
2013-05-05 04:35:00,69.0,62.2,29.80,West,281,7.0,15.0,79,0.00,,,0.03,Wunderground v.1.15,2013-05-05 08:35:00,
2013-05-05 04:36:00,69.0,61.9,29.80,WNW,291,7.0,15.0,78,0.00,,,0.03,Wunderground v.1.15,2013-05-05 08:36:00,
2013-05-05 04:37:00,69.0,61.9,29.80,West,273,7.0,15.0,78,0.00,,,0.03,Wunderground v.1.15,2013-05-05 08:37:00,
2013-05-05 04:38:00,69.0,61.9,29.80,NW,316,7.0,15.0,78,0.00,,,0.03,Wunderground v.1.15,2013-05-05 08:38:00,
2013-05-05 04:39:00,69.0,61.5,29.80,West,270,7.0,7.0,77,0.00,,,0.03,Wunderground v.1.15,2013-05-05 08:39:00,
2013-05-05 04:45:00,68.9,61.4,29.80,WNW,303,6.0,8.0,77,0.00,,,0.03,Wunderground v.1.15,2013-05-05 08:45:00,
2013-05-05 04:46:00,68.9,61.4,29.80,WNW,288,6.0,8.0,77,0.00,,,0.03,Wunderground v.1.15,2013-05-05 08:46:00,
2013-05-05 04:47:00,68.9,61.4,29.80,WNW,287,6.0,9.0,77,0.00,,,0.03,Wunderground v.1.15,2013-05-05 08:47:00,
2013-05-05 04:48:00,68.9,61.0,29.80,West,259,6.0,9.0,76,0.00,,,0.03,Wunderground v.1.15,2013-05-05 08:48:00,
2013-05-05 04:50:00,68.9,61.4,29.80,NW,313,6.0,7.0,77,0.00,,,0.03,Wunderground v.1.15,2013-05-05 08:50:00,
2013-05-05 04:54:00,68.8,62.0,29.80,West,280,6.0,7.0,79,0.00,,,0.03,Wunderground v.1.15,2013-05-05 08:54:00,
2013-05-05 04:55:00,68.7,61.9,29.80,NW,304,6.0,7.0,79,0.00,,,0.03,Wunderground v.1.15,2013-05-05 08:55:00,
2013-05-05 04:56:00,68.6,61.8,29.80,NW,305,7.0,14.0,79,0.00,,,0.03,Wunderground v.1.15,2013-05-05 08:56:00,
2013-05-05 04:58:00,68.6,61.5,29.80,NW,326,7.0,14.0,78,0.00,,,0.03,Wunderground v.1.15,2013-05-05 08:58:00,
2013-05-05 04:59:00,68.5,61.4,29.80,West,264,7.0,14.0,78,0.00,,,0.03,Wunderground v.1.15,2013-05-05 08:59:00,
2013-05-05 05:00:00,68.5,61.4,29.80,West,278,8.0,8.0,78,0.00,,,0.03,Wunderground v.1.15,2013-05-05 09:00:00,
2013-05-05 05:04:00,68.3,61.2,29.80,West,271,8.0,12.0,78,0.00,,,0.03,Wunderground v.1.15,2013-05-05 09:04:00,
2013-05-05 05:05:00,68.2,60.7,29.80,WSW,246,8.0,15.0,77,0.00,,,0.03,Wunderground v.1.15,2013-05-05 09:05:00,
2013-05-05 05:06:00,68.2,60.7,29.80,West,269,8.0,15.0,77,0.00,,,0.03,Wunderground v.1.15,2013-05-05 09:06:00,
2013-05-05 05:10:00,68.0,60.2,29.80,WNW,288,7.0,13.0,76,0.00,,,0.03,Wunderground v.1.15,2013-05-05 09:10:00,
2013-05-05 05:12:00,68.0,60.2,29.80,West,274,8.0,13.0,76,0.00,,,0.03,Wunderground v.1.15,2013-05-05 09:12:00,
2013-05-05 05:13:00,67.9,59.7,29.80,WNW,288,8.0,13.0,75,0.00,,,0.03,Wunderground v.1.15,2013-05-05 09:13:00,
2013-05-05 05:17:00,67.8,59.6,29.80,WNW,287,6.0,13.0,75,0.00,,,0.03,Wunderground v.1.15,2013-05-05 09:17:00,
2013-05-05 05:18:00,67.7,59.5,29.80,WSW,250,6.0,13.0,75,0.00,,,0.03,Wunderground v.1.15,2013-05-05 09:18:00,
2013-05-05 05:20:00,67.7,59.5,29.81,West,266,6.0,6.0,75,0.00,,,0.03,Wunderground v.1.15,2013-05-05 09:20:00,
2013-05-05 05:24:00,67.6,59.8,29.81,West,267,6.0,10.0,76,0.00,,,0.03,Wunderground v.1.15,2013-05-05 09:24:00,
2013-05-05 05:25:00,67.6,60.1,29.81,WNW,301,6.0,10.0,77,0.00,,,0.03,Wunderground v.1.15,2013-05-05 09:25:00,
2013-05-05 05:26:00,67.5,60.0,29.81,WNW,301,7.0,10.0,77,0.00,,,0.03,Wunderground v.1.15,2013-05-05 09:26:00,
2013-05-05 05:31:00,67.5,60.4,29.81,WNW,283,6.0,7.0,78,0.00,,,0.03,Wunderground v.1.15,2013-05-05 09:31:00,
2013-05-05 05:33:00,67.5,60.8,29.81,West,269,6.0,12.0,79,0.00,,,0.03,Wunderground v.1.15,2013-05-05 09:33:00,
2013-05-05 05:36:00,67.5,60.8,29.81,WNW,301,6.0,12.0,79,0.00,,,0.03,Wunderground v.1.15,2013-05-05 09:36:00,
2013-05-05 05:38:00,67.5,60.8,29.81,NW,321,6.0,12.0,79,0.00,,,0.03,Wunderground v.1.15,2013-05-05 09:38:00,
2013-05-05 05:39:00,67.5,60.8,29.81,WNW,295,6.0,12.0,79,0.00,,,0.03,Wunderground v.1.15,2013-05-05 09:39:00,
2013-05-05 05:43:00,67.4,60.3,29.81,WNW,300,6.0,12.0,78,0.00,,,0.03,Wunderground v.1.15,2013-05-05 09:43:00,
2013-05-05 05:45:00,67.3,60.2,29.81,WNW,296,6.0,12.0,78,0.00,,,0.03,Wunderground v.1.15,2013-05-05 09:45:00,
2013-05-05 05:47:00,67.3,60.2,29.81,WNW,287,6.0,12.0,78,0.00,,,0.03,Wunderground v.1.15,2013-05-05 09:47:00,
2013-05-05 05:51:00,67.3,59.8,29.81,West,281,6.0,12.0,77,0.00,,,0.03,Wunderground v.1.15,2013-05-05 09:51:00,
2013-05-05 05:53:00,67.3,59.8,29.81,NW,312,6.0,12.0,77,0.00,,,0.03,Wunderground v.1.15,2013-05-05 09:53:00,
2013-05-05 05:54:00,67.3,59.8,29.81,NW,319,6.0,12.0,77,0.00,,,0.03,Wunderground v.1.15,2013-05-05 09:54:00,
2013-05-05 05:56:00,67.3,60.2,29.81,NW,305,6.0,12.0,78,0.00,,,0.03,Wunderground v.1.15,2013-05-05 09:56:00,
2013-05-05 05:58:00,67.3,59.8,29.81,West,281,7.0,12.0,77,0.00,,,0.03,Wunderground v.1.15,2013-05-05 09:58:00,
2013-05-05 06:01:00,67.2,59.4,29.82,West,276,7.0,13.0,76,0.00,,,0.03,Wunderground v.1.15,2013-05-05 10:01:00,
2013-05-05 06:04:00,67.1,58.9,29.82,NNW,335,8.0,13.0,75,0.00,,,0.03,Wunderground v.1.15,2013-05-05 10:04:00,
2013-05-05 06:05:00,67.1,59.3,29.82,NW,319,8.0,13.0,76,0.00,,,0.03,Wunderground v.1.15,2013-05-05 10:05:00,
2013-05-05 06:06:00,67.1,59.3,29.82,West,280,8.0,13.0,76,0.00,,,0.03,Wunderground v.1.15,2013-05-05 10:06:00,
2013-05-05 06:09:00,67.0,59.2,29.82,West,267,8.0,13.0,76,0.00,,,0.03,Wunderground v.1.15,2013-05-05 10:09:00,
2013-05-05 06:11:00,66.9,58.7,29.82,WNW,293,8.0,8.0,75,0.00,,,0.03,Wunderground v.1.15,2013-05-05 10:11:00,
2013-05-05 06:13:00,66.8,58.6,29.82,NW,319,8.0,13.0,75,0.00,,,0.03,Wunderground v.1.15,2013-05-05 10:13:00,
2013-05-05 06:14:00,66.8,58.6,29.82,WNW,293,8.0,13.0,75,0.00,,,0.03,Wunderground v.1.15,2013-05-05 10:14:00,
2013-05-05 06:15:00,66.8,58.6,29.82,NW,316,8.0,13.0,75,0.00,,,0.03,Wunderground v.1.15,2013-05-05 10:15:00,
2013-05-05 06:17:00,66.7,58.9,29.83,WNW,297,7.0,13.0,76,0.00,,,0.03,Wunderground v.1.15,2013-05-05 10:17:00,
2013-05-05 06:19:00,66.7,58.9,29.83,WNW,283,7.0,8.0,76,0.00,,,0.03,Wunderground v.1.15,2013-05-05 10:19:00,
2013-05-05 06:20:00,66.7,58.9,29.83,NW,304,7.0,8.0,76,0.00,,,0.03,Wunderground v.1.15,2013-05-05 10:20:00,
2013-05-05 06:21:00,66.6,58.4,29.83,WNW,290,7.0,8.0,75,0.00,,,0.03,Wunderground v.1.15,2013-05-05 10:21:00,
2013-05-05 06:23:00,66.6,58.4,29.83,West,278,7.0,8.0,75,0.00,,,0.03,Wunderground v.1.15,2013-05-05 10:23:00,
2013-05-05 06:24:00,66.6,58.4,29.83,NW,318,7.0,8.0,75,0.00,,,0.03,Wunderground v.1.15,2013-05-05 10:24:00,
2013-05-05 06:26:00,66.5,58.3,29.83,WNW,301,7.0,8.0,75,0.00,,,0.03,Wunderground v.1.15,2013-05-05 10:26:00,
2013-05-05 06:27:00,66.5,58.3,29.83,West,278,7.0,8.0,75,0.00,,,0.03,Wunderground v.1.15,2013-05-05 10:27:00,
2013-05-05 06:29:00,66.5,58.7,29.83,NW,312,7.0,8.0,76,0.00,,,0.03,Wunderground v.1.15,2013-05-05 10:29:00,
2013-05-05 06:30:00,66.5,58.7,29.83,WNW,302,6.0,9.0,76,0.00,,,0.03,Wunderground v.1.15,2013-05-05 10:30:00,
2013-05-05 06:32:00,66.4,58.2,29.83,WNW,283,6.0,9.0,75,0.00,,,0.03,Wunderground v.1.15,2013-05-05 10:32:00,
2013-05-05 06:34:00,66.4,57.9,29.83,WNW,288,6.0,10.0,74,0.00,,,0.03,Wunderground v.1.15,2013-05-05 10:34:00,
2013-05-05 06:37:00,66.4,57.9,29.84,WNW,301,7.0,10.0,74,0.00,,,0.03,Wunderground v.1.15,2013-05-05 10:37:00,
2013-05-05 06:40:00,66.4,57.9,29.84,WNW,298,8.0,8.0,74,0.00,,,0.03,Wunderground v.1.15,2013-05-05 10:40:00,
2013-05-05 06:41:00,66.4,57.9,29.84,WNW,301,8.0,8.0,74,0.00,,,0.03,Wunderground v.1.15,2013-05-05 10:41:00,
2013-05-05 06:43:00,66.4,57.9,29.84,West,278,8.0,8.0,74,0.00,,,0.03,Wunderground v.1.15,2013-05-05 10:43:00,
2013-05-05 06:45:00,66.3,57.4,29.84,NW,307,7.0,8.0,73,0.00,,,0.03,Wunderground v.1.15,2013-05-05 10:45:00,
2013-05-05 06:49:00,66.3,57.8,29.84,WNW,300,7.0,12.0,74,0.00,,,0.03,Wunderground v.1.15,2013-05-05 10:49:00,
2013-05-05 06:50:00,66.3,57.8,29.84,NW,311,7.0,7.0,74,0.00,,,0.03,Wunderground v.1.15,2013-05-05 10:50:00,
2013-05-05 06:51:00,66.3,57.8,29.84,WNW,288,7.0,7.0,74,0.00,,,0.03,Wunderground v.1.15,2013-05-05 10:51:00,
2013-05-05 06:52:00,66.3,57.8,29.84,WNW,289,7.0,8.0,74,0.00,,,0.03,Wunderground v.1.15,2013-05-05 10:52:00,
2013-05-05 06:55:00,66.3,58.1,29.84,NW,313,6.0,8.0,75,0.00,,,0.03,Wunderground v.1.15,2013-05-05 10:55:00,
2013-05-05 06:56:00,66.3,58.1,29.84,West,278,6.0,8.0,75,0.00,,,0.03,Wunderground v.1.15,2013-05-05 10:56:00,
2013-05-05 06:59:00,66.4,57.9,29.84,West,278,7.0,7.0,74,0.00,,,0.03,Wunderground v.1.15,2013-05-05 10:59:00,
2013-05-05 07:00:00,66.4,57.9,29.84,WNW,298,7.0,7.0,74,0.00,,,0.03,Wunderground v.1.15,2013-05-05 11:00:00,
2013-05-05 07:03:00,66.5,57.6,29.84,NNE,12,7.0,8.0,73,0.00,,,0.03,Wunderground v.1.15,2013-05-05 11:03:00,
2013-05-05 07:07:00,66.5,57.2,29.85,WNW,290,8.0,14.0,72,0.00,,,0.03,Wunderground v.1.15,2013-05-05 11:07:00,
2013-05-05 07:09:00,66.6,57.3,29.84,WNW,283,8.0,14.0,72,0.00,,,0.03,Wunderground v.1.15,2013-05-05 11:09:00,
2013-05-05 07:13:00,66.7,57.8,29.85,NW,319,8.0,10.0,73,0.00,,,0.03,Wunderground v.1.15,2013-05-05 11:13:00,
2013-05-05 07:14:00,66.7,57.8,29.85,NW,309,8.0,15.0,73,0.00,,,0.03,Wunderground v.1.15,2013-05-05 11:14:00,
2013-05-05 07:16:00,66.9,58.0,29.85,NW,326,8.0,15.0,73,0.00,,,0.03,Wunderground v.1.15,2013-05-05 11:16:00,
2013-05-05 07:18:00,66.9,58.0,29.85,West,270,8.0,15.0,73,0.00,,,0.03,Wunderground v.1.15,2013-05-05 11:18:00,
2013-05-05 07:19:00,66.9,57.6,29.85,WNW,283,8.0,8.0,72,0.00,,,0.03,Wunderground v.1.15,2013-05-05 11:19:00,
2013-05-05 07:21:00,66.9,57.6,29.85,WNW,283,9.0,9.0,72,0.00,,,0.03,Wunderground v.1.15,2013-05-05 11:21:00,
2013-05-05 07:23:00,67.0,57.7,29.86,North,351,8.0,14.0,72,0.00,,,0.03,Wunderground v.1.15,2013-05-05 11:23:00,
2013-05-05 07:25:00,67.0,57.7,29.86,NNW,336,8.0,14.0,72,0.00,,,0.03,Wunderground v.1.15,2013-05-05 11:25:00,
2013-05-05 07:26:00,67.0,58.1,29.86,NW,315,8.0,14.0,73,0.00,,,0.03,Wunderground v.1.15,2013-05-05 11:26:00,
2013-05-05 07:29:00,67.0,58.1,29.86,WNW,292,7.0,9.0,73,0.00,,,0.03,Wunderground v.1.15,2013-05-05 11:29:00,
2013-05-05 07:31:00,67.1,58.2,29.86,NNW,330,8.0,12.0,73,0.00,,,0.03,Wunderground v.1.15,2013-05-05 11:31:00,
2013-05-05 07:33:00,67.1,58.2,29.86,NNW,334,8.0,12.0,73,0.00,,,0.03,Wunderground v.1.15,2013-05-05 11:33:00,
2013-05-05 07:36:00,67.1,57.8,29.86,NW,317,9.0,12.0,72,0.00,,,0.03,Wunderground v.1.15,2013-05-05 11:36:00,
2013-05-05 07:38:00,67.2,57.9,29.86,West,266,9.0,12.0,72,0.00,,,0.03,Wunderground v.1.15,2013-05-05 11:38:00,
2013-05-05 07:39:00,67.2,57.9,29.86,NNW,330,14.0,14.0,72,0.00,,,0.03,Wunderground v.1.15,2013-05-05 11:39:00,
2013-05-05 07:41:00,67.2,57.5,29.86,NNW,328,9.0,14.0,71,0.00,,,0.03,Wunderground v.1.15,2013-05-05 11:41:00,
2013-05-05 07:44:00,67.2,57.1,29.86,West,277,5.0,15.0,70,0.00,,,0.03,Wunderground v.1.15,2013-05-05 11:44:00,
2013-05-05 07:46:00,67.2,57.5,29.86,NNW,343,3.0,15.0,71,0.00,,,0.03,Wunderground v.1.15,2013-05-05 11:46:00,
2013-05-05 07:49:00,67.2,57.1,29.86,West,281,5.0,16.0,70,0.00,,,0.03,Wunderground v.1.15,2013-05-05 11:49:00,
2013-05-05 07:50:00,67.2,57.5,29.86,NW,317,9.0,13.0,71,0.00,,,0.03,Wunderground v.1.15,2013-05-05 11:50:00,
2013-05-05 07:51:00,67.2,57.5,29.86,WNW,283,11.0,14.0,71,0.00,,,0.03,Wunderground v.1.15,2013-05-05 11:51:00,
2013-05-05 07:54:00,67.1,57.4,29.87,WNW,290,14.0,16.0,71,0.00,,,0.03,Wunderground v.1.15,2013-05-05 11:54:00,
2013-05-05 07:55:00,67.1,57.4,29.87,NW,312,6.0,16.0,71,0.00,,,0.03,Wunderground v.1.15,2013-05-05 11:55:00,
2013-05-05 07:56:00,67.0,57.3,29.87,NW,313,7.0,16.0,71,0.00,,,0.03,Wunderground v.1.15,2013-05-05 11:56:00,
2013-05-05 07:59:00,66.9,57.6,29.87,West,280,15.0,24.0,72,0.00,,,0.03,Wunderground v.1.15,2013-05-05 11:59:00,
2013-05-05 08:00:00,66.8,57.5,29.87,WNW,283,12.0,14.0,72,0.00,,,0.03,Wunderground v.1.15,2013-05-05 12:00:00,
2013-05-05 08:01:00,66.8,57.9,29.87,WNW,301,10.0,14.0,73,0.00,,,0.03,Wunderground v.1.15,2013-05-05 12:01:00,
2013-05-05 08:04:00,66.8,57.9,29.87,WNW,291,7.0,20.0,73,0.00,,,0.03,Wunderground v.1.15,2013-05-05 12:04:00,
2013-05-05 08:05:00,66.8,57.9,29.87,West,281,11.0,20.0,73,0.00,,,0.03,Wunderground v.1.15,2013-05-05 12:05:00,
2013-05-05 08:06:00,66.9,58.0,29.87,NW,314,9.0,20.0,73,0.00,,,0.03,Wunderground v.1.15,2013-05-05 12:06:00,
2013-05-05 08:09:00,66.8,57.1,29.87,NW,326,7.0,10.0,71,0.00,,,0.03,Wunderground v.1.15,2013-05-05 12:09:00,
2013-05-05 08:10:00,66.9,57.2,29.87,NW,315,7.0,10.0,71,0.00,,,0.03,Wunderground v.1.15,2013-05-05 12:10:00,
2013-05-05 08:11:00,66.9,57.2,29.87,WNW,294,11.0,18.0,71,0.00,,,0.03,Wunderground v.1.15,2013-05-05 12:11:00,
2013-05-05 08:14:00,67.0,57.7,29.88,NW,318,14.0,18.0,72,0.00,,,0.03,Wunderground v.1.15,2013-05-05 12:14:00,
2013-05-05 08:15:00,67.0,57.7,29.88,West,278,6.0,18.0,72,0.00,,,0.03,Wunderground v.1.15,2013-05-05 12:15:00,
2013-05-05 08:16:00,67.0,57.7,29.88,NW,308,6.0,18.0,72,0.00,,,0.03,Wunderground v.1.15,2013-05-05 12:16:00,
2013-05-05 08:19:00,66.7,57.4,29.88,NW,309,11.0,17.0,72,0.00,,,0.03,Wunderground v.1.15,2013-05-05 12:19:00,
2013-05-05 08:21:00,66.7,57.0,29.88,NW,319,8.0,17.0,71,0.00,,,0.03,Wunderground v.1.15,2013-05-05 12:21:00,
2013-05-05 08:25:00,66.8,56.3,29.88,West,270,11.0,18.0,69,0.00,,,0.03,Wunderground v.1.15,2013-05-05 12:25:00,
2013-05-05 08:26:00,66.8,56.3,29.89,WNW,294,10.0,18.0,69,0.00,,,0.03,Wunderground v.1.15,2013-05-05 12:26:00,
2013-05-05 08:30:00,66.9,55.6,29.89,NW,307,5.0,15.0,67,0.00,,,0.03,Wunderground v.1.15,2013-05-05 12:30:00,
2013-05-05 08:31:00,67.0,55.7,29.89,NW,320,5.0,17.0,67,0.00,,,0.03,Wunderground v.1.15,2013-05-05 12:31:00,
2013-05-05 08:35:00,67.1,55.4,29.89,NNW,335,12.0,19.0,66,0.00,,,0.03,Wunderground v.1.15,2013-05-05 12:35:00,
2013-05-05 08:36:00,67.2,55.5,29.88,SW,233,5.0,19.0,66,0.00,,,0.03,Wunderground v.1.15,2013-05-05 12:36:00,
2013-05-05 08:37:00,67.2,55.5,29.89,NW,316,9.0,19.0,66,0.00,,,0.03,Wunderground v.1.15,2013-05-05 12:37:00,
2013-05-05 08:41:00,67.4,56.5,29.89,WNW,290,6.0,15.0,68,0.00,,,0.03,Wunderground v.1.15,2013-05-05 12:41:00,
2013-05-05 08:42:00,67.5,55.7,29.89,West,263,16.0,16.0,66,0.00,,,0.03,Wunderground v.1.15,2013-05-05 12:42:00,
2013-05-05 08:46:00,67.6,56.2,29.89,NW,321,8.0,16.0,67,0.00,,,0.03,Wunderground v.1.15,2013-05-05 12:46:00,
2013-05-05 08:47:00,67.6,56.2,29.89,NW,304,12.0,16.0,67,0.00,,,0.03,Wunderground v.1.15,2013-05-05 12:47:00,
2013-05-05 08:51:00,67.7,55.5,29.89,NW,314,7.0,14.0,65,0.00,,,0.03,Wunderground v.1.15,2013-05-05 12:51:00,
2013-05-05 08:52:00,67.7,55.5,29.89,NW,318,4.0,14.0,65,0.00,,,0.03,Wunderground v.1.15,2013-05-05 12:52:00,
2013-05-05 08:53:00,67.7,55.5,29.89,NW,307,5.0,14.0,65,0.00,,,0.03,Wunderground v.1.15,2013-05-05 12:53:00,
2013-05-05 08:56:00,67.7,55.1,29.89,WNW,298,9.0,14.0,64,0.00,,,0.03,Wunderground v.1.15,2013-05-05 12:56:00,
2013-05-05 08:57:00,67.7,55.1,29.89,NNW,328,8.0,14.0,64,0.00,,,0.03,Wunderground v.1.15,2013-05-05 12:57:00,
2013-05-05 09:58:00,69.3,54.4,29.91,NW,312,7.0,7.0,59,0.00,,,0.03,Wunderground v.1.15,2013-05-05 13:58:00,
2013-05-05 09:59:00,69.3,54.8,29.91,WNW,298,6.0,11.0,60,0.00,,,0.03,Wunderground v.1.15,2013-05-05 13:59:00,
2013-05-05 10:03:00,69.4,54.9,29.91,West,278,4.0,15.0,60,0.00,,,0.03,Wunderground v.1.15,2013-05-05 14:03:00,
2013-05-05 10:04:00,69.4,54.4,29.91,NW,320,15.0,19.0,59,0.00,,,0.03,Wunderground v.1.15,2013-05-05 14:04:00,
2013-05-05 10:08:00,69.5,55.5,29.91,West,266,7.0,19.0,61,0.00,,,0.03,Wunderground v.1.15,2013-05-05 14:08:00,
2013-05-05 10:09:00,69.5,55.5,29.91,WNW,285,10.0,19.0,61,0.00,,,0.03,Wunderground v.1.15,2013-05-05 14:09:00,
2013-05-05 10:14:00,69.4,54.9,29.91,WNW,298,11.0,17.0,60,0.00,,,0.03,Wunderground v.1.15,2013-05-05 14:14:00,
2013-05-05 10:15:00,69.4,55.4,29.91,WNW,302,6.0,17.0,61,0.00,,,0.03,Wunderground v.1.15,2013-05-05 14:15:00,
2013-05-05 10:19:00,69.3,54.8,29.91,WNW,295,11.0,17.0,60,0.00,,,0.03,Wunderground v.1.15,2013-05-05 14:19:00,
2013-05-05 10:20:00,69.3,54.4,29.91,NNE,13,13.0,18.0,59,0.00,,,0.03,Wunderground v.1.15,2013-05-05 14:20:00,
2013-05-05 10:24:00,69.7,55.2,29.91,NNW,329,8.0,18.0,60,0.00,,,0.03,Wunderground v.1.15,2013-05-05 14:24:00,
2013-05-05 10:25:00,69.8,55.3,29.91,West,276,5.0,18.0,60,0.00,,,0.03,Wunderground v.1.15,2013-05-05 14:25:00,
2013-05-05 10:29:00,69.9,54.9,29.91,WNW,294,12.0,12.0,59,0.00,,,0.03,Wunderground v.1.15,2013-05-05 14:29:00,
2013-05-05 10:30:00,69.9,54.9,29.91,WNW,288,11.0,15.0,59,0.00,,,0.03,Wunderground v.1.15,2013-05-05 14:30:00,
2013-05-05 10:35:00,70.2,54.7,29.92,WNW,296,12.0,15.0,58,0.00,,,0.03,Wunderground v.1.15,2013-05-05 14:35:00,
2013-05-05 10:40:00,70.2,54.7,29.92,NW,323,4.0,7.0,58,0.00,,,0.03,Wunderground v.1.15,2013-05-05 14:40:00,
2013-05-05 10:41:00,70.2,55.2,29.92,NW,312,11.0,19.0,59,0.00,,,0.03,Wunderground v.1.15,2013-05-05 14:41:00,
2013-05-05 10:45:00,70.4,53.5,29.92,WNW,289,10.0,19.0,55,0.00,,,0.03,Wunderground v.1.15,2013-05-05 14:45:00,
2013-05-05 10:46:00,70.4,53.5,29.92,North,355,8.0,19.0,55,0.00,,,0.03,Wunderground v.1.15,2013-05-05 14:46:00,
2013-05-05 10:50:00,70.2,53.3,29.92,NNW,335,9.0,11.0,55,0.00,,,0.03,Wunderground v.1.15,2013-05-05 14:50:00,
2013-05-05 10:51:00,70.3,53.9,29.92,NW,314,5.0,11.0,56,0.00,,,0.03,Wunderground v.1.15,2013-05-05 14:51:00,
2013-05-05 10:56:00,70.3,53.9,29.92,NW,319,12.0,18.0,56,0.00,,,0.03,Wunderground v.1.15,2013-05-05 14:56:00,
2013-05-05 11:01:00,70.4,54.4,29.92,WNW,300,8.0,17.0,57,0.00,,,0.03,Wunderground v.1.15,2013-05-05 15:01:00,
2013-05-05 11:02:00,70.4,54.0,29.92,NW,323,5.0,17.0,56,0.00,,,0.03,Wunderground v.1.15,2013-05-05 15:02:00,
2013-05-05 11:06:00,70.4,54.4,29.92,North,7,4.0,17.0,57,0.00,,,0.03,Wunderground v.1.15,2013-05-05 15:06:00,
2013-05-05 11:07:00,70.5,55.0,29.92,NW,326,7.0,17.0,58,0.00,,,0.03,Wunderground v.1.15,2013-05-05 15:07:00,
2013-05-05 11:11:00,70.7,54.2,29.92,WNW,297,6.0,11.0,56,0.00,,,0.03,Wunderground v.1.15,2013-05-05 15:11:00,
2013-05-05 11:12:00,70.7,54.2,29.92,WNW,302,5.0,11.0,56,0.00,,,0.03,Wunderground v.1.15,2013-05-05 15:12:00,
2013-05-05 11:16:00,70.6,54.1,29.92,WNW,293,4.0,17.0,56,0.00,,,0.03,Wunderground v.1.15,2013-05-05 15:16:00,
2013-05-05 11:17:00,70.6,54.1,29.92,NNE,29,12.0,17.0,56,0.00,,,0.03,Wunderground v.1.15,2013-05-05 15:17:00,
2013-05-05 11:18:00,70.7,54.2,29.92,WNW,298,2.0,17.0,56,0.00,,,0.03,Wunderground v.1.15,2013-05-05 15:18:00,
2013-05-05 11:21:00,70.8,54.8,29.92,WNW,302,7.0,15.0,57,0.00,,,0.03,Wunderground v.1.15,2013-05-05 15:21:00,
2013-05-05 11:22:00,70.8,54.8,29.92,NW,320,4.0,15.0,57,0.00,,,0.03,Wunderground v.1.15,2013-05-05 15:22:00,
2013-05-05 11:23:00,70.9,54.9,29.92,WNW,297,6.0,15.0,57,0.00,,,0.03,Wunderground v.1.15,2013-05-05 15:23:00,
2013-05-05 11:27:00,71.4,54.4,29.92,West,271,4.0,15.0,55,0.00,,,0.03,Wunderground v.1.15,2013-05-05 15:27:00,
2013-05-05 11:28:00,71.5,55.0,29.92,WNW,300,7.0,15.0,56,0.00,,,0.03,Wunderground v.1.15,2013-05-05 15:28:00,
2013-05-05 11:32:00,71.1,54.6,29.92,North,5,5.0,16.0,56,0.00,,,0.03,Wunderground v.1.15,2013-05-05 15:32:00,
2013-05-05 11:33:00,71.0,54.5,29.92,NW,314,15.0,16.0,56,0.00,,,0.03,Wunderground v.1.15,2013-05-05 15:33:00,
2013-05-05 11:34:00,70.9,53.9,29.92,West,281,4.0,16.0,55,0.00,,,0.03,Wunderground v.1.15,2013-05-05 15:34:00,
2013-05-05 11:37:00,70.9,55.4,29.92,North,359,7.0,16.0,58,0.00,,,0.03,Wunderground v.1.15,2013-05-05 15:37:00,
2013-05-05 11:38:00,71.0,55.5,29.92,NW,323,6.0,16.0,58,0.00,,,0.03,Wunderground v.1.15,2013-05-05 15:38:00,
2013-05-05 11:39:00,71.3,55.8,29.92,West,276,3.0,9.0,58,0.00,,,0.03,Wunderground v.1.15,2013-05-05 15:39:00,
2013-05-05 11:42:00,71.4,54.9,29.92,WNW,283,13.0,13.0,56,0.00,,,0.03,Wunderground v.1.15,2013-05-05 15:42:00,
2013-05-05 11:43:00,71.4,54.9,29.92,WNW,290,11.0,13.0,56,0.00,,,0.03,Wunderground v.1.15,2013-05-05 15:43:00,
2013-05-05 11:44:00,71.3,54.3,29.92,West,278,9.0,15.0,55,0.00,,,0.03,Wunderground v.1.15,2013-05-05 15:44:00,
2013-05-05 11:48:00,71.0,54.0,29.92,NW,315,4.0,15.0,55,0.00,,,0.03,Wunderground v.1.15,2013-05-05 15:48:00,
2013-05-05 11:49:00,71.1,55.1,29.92,NW,326,5.0,15.0,57,0.00,,,0.03,Wunderground v.1.15,2013-05-05 15:49:00,
2013-05-05 11:53:00,71.4,54.9,29.92,NNW,330,8.0,13.0,56,0.00,,,0.03,Wunderground v.1.15,2013-05-05 15:53:00,
2013-05-05 11:54:00,71.5,55.0,29.92,NW,325,7.0,16.0,56,0.00,,,0.03,Wunderground v.1.15,2013-05-05 15:54:00,
2013-05-05 11:55:00,71.5,54.0,29.92,NW,322,8.0,16.0,54,0.00,,,0.03,Wunderground v.1.15,2013-05-05 15:55:00,
2013-05-05 11:58:00,71.5,54.5,29.92,NNW,340,13.0,16.0,55,0.00,,,0.03,Wunderground v.1.15,2013-05-05 15:58:00,
2013-05-05 11:59:00,71.6,54.6,29.92,West,278,9.0,16.0,55,0.00,,,0.03,Wunderground v.1.15,2013-05-05 15:59:00,
2013-05-05 12:00:00,71.6,54.1,29.92,West,274,11.0,17.0,54,0.00,,,0.03,Wunderground v.1.15,2013-05-05 16:00:00,
2013-05-05 12:03:00,71.9,54.9,29.92,WNW,288,12.0,17.0,55,0.00,,,0.03,Wunderground v.1.15,2013-05-05 16:03:00,
2013-05-05 12:04:00,72.0,54.9,29.92,WNW,291,14.0,17.0,55,0.00,,,0.03,Wunderground v.1.15,2013-05-05 16:04:00,
2013-05-05 12:05:00,71.9,54.9,29.92,NNW,334,6.0,17.0,55,0.00,,,0.03,Wunderground v.1.15,2013-05-05 16:05:00,
2013-05-05 12:08:00,72.4,54.8,29.92,NW,314,8.0,17.0,54,0.00,,,0.03,Wunderground v.1.15,2013-05-05 16:08:00,
2013-05-05 12:09:00,72.4,54.3,29.92,NNW,330,6.0,8.0,53,0.00,,,0.03,Wunderground v.1.15,2013-05-05 16:09:00,
2013-05-05 12:10:00,72.4,54.3,29.92,NW,305,8.0,9.0,53,0.00,,,0.03,Wunderground v.1.15,2013-05-05 16:10:00,
2013-05-05 12:14:00,72.4,52.2,29.92,NW,317,13.0,16.0,49,0.00,,,0.03,Wunderground v.1.15,2013-05-05 16:14:00,
2013-05-05 12:15:00,72.4,52.2,29.91,NNW,334,10.0,17.0,49,0.00,,,0.03,Wunderground v.1.15,2013-05-05 16:15:00,
2013-05-05 12:19:00,72.5,53.3,29.91,WNW,283,16.0,17.0,51,0.00,,,0.03,Wunderground v.1.15,2013-05-05 16:19:00,
2013-05-05 12:20:00,72.3,53.2,29.91,WNW,293,6.0,11.0,51,0.00,,,0.03,Wunderground v.1.15,2013-05-05 16:20:00,
2013-05-05 12:24:00,72.4,54.3,29.92,NW,326,12.0,13.0,53,0.00,,,0.03,Wunderground v.1.15,2013-05-05 16:24:00,
2013-05-05 12:25:00,72.4,52.7,29.91,NW,323,5.0,13.0,50,0.00,,,0.03,Wunderground v.1.15,2013-05-05 16:25:00,
2013-05-05 12:30:00,72.8,54.1,29.92,NW,311,5.0,9.0,52,0.00,,,0.03,Wunderground v.1.15,2013-05-05 16:30:00,
2013-05-05 12:31:00,72.8,53.6,29.92,WNW,300,8.0,11.0,51,0.00,,,0.03,Wunderground v.1.15,2013-05-05 16:31:00,
2013-05-05 12:35:00,72.7,52.4,29.91,NNW,347,10.0,17.0,49,0.00,,,0.03,Wunderground v.1.15,2013-05-05 16:35:00,
2013-05-05 12:36:00,72.7,52.4,29.92,NW,305,13.0,17.0,49,0.00,,,0.03,Wunderground v.1.15,2013-05-05 16:36:00,
2013-05-05 12:37:00,72.7,52.4,29.92,NW,312,6.0,17.0,49,0.00,,,0.03,Wunderground v.1.15,2013-05-05 16:37:00,
2013-05-05 12:40:00,72.7,53.5,29.91,NW,323,6.0,10.0,51,0.00,,,0.03,Wunderground v.1.15,2013-05-05 16:40:00,
2013-05-05 12:41:00,72.7,53.5,29.91,NNW,333,9.0,10.0,51,0.00,,,0.03,Wunderground v.1.15,2013-05-05 16:41:00,
2013-05-05 12:42:00,72.8,54.1,29.92,NW,323,4.0,13.0,52,0.00,,,0.03,Wunderground v.1.15,2013-05-05 16:42:00,
2013-05-05 12:45:00,73.0,53.3,29.92,WNW,285,13.0,18.0,50,0.00,,,0.03,Wunderground v.1.15,2013-05-05 16:45:00,
2013-05-05 12:46:00,73.0,53.3,29.92,NW,315,15.0,18.0,50,0.00,,,0.03,Wunderground v.1.15,2013-05-05 16:46:00,
2013-05-05 12:47:00,72.7,53.0,29.92,NW,314,7.0,18.0,50,0.00,,,0.03,Wunderground v.1.15,2013-05-05 16:47:00,
2013-05-05 12:50:00,72.5,52.8,29.92,NNW,327,10.0,12.0,50,0.00,,,0.03,Wunderground v.1.15,2013-05-05 16:50:00,
2013-05-05 12:51:00,72.5,52.8,29.92,NNW,328,12.0,17.0,50,0.00,,,0.03,Wunderground v.1.15,2013-05-05 16:51:00,
2013-05-05 12:52:00,72.6,52.9,29.92,West,280,9.0,17.0,50,0.00,,,0.03,Wunderground v.1.15,2013-05-05 16:52:00,
2013-05-05 12:56:00,72.6,52.9,29.91,WNW,298,12.0,17.0,50,0.00,,,0.03,Wunderground v.1.15,2013-05-05 16:56:00,
2013-05-05 12:57:00,72.6,54.0,29.91,NW,318,3.0,17.0,52,0.00,,,0.03,Wunderground v.1.15,2013-05-05 16:57:00,
2013-05-05 13:01:00,73.2,54.0,29.91,WNW,301,3.0,10.0,51,0.00,,,0.03,Wunderground v.1.15,2013-05-05 17:01:00,
2013-05-05 13:03:00,73.3,53.5,29.91,WNW,300,7.0,13.0,50,0.00,,,0.03,Wunderground v.1.15,2013-05-05 17:03:00,
2013-05-05 13:06:00,73.0,54.3,29.91,SW,217,6.0,16.0,52,0.00,,,0.03,Wunderground v.1.15,2013-05-05 17:06:00,
2013-05-05 13:08:00,73.0,54.3,29.91,NNW,337,7.0,16.0,52,0.00,,,0.03,Wunderground v.1.15,2013-05-05 17:08:00,
2013-05-05 13:11:00,73.2,53.4,29.91,WNW,285,5.0,12.0,50,0.00,,,0.03,Wunderground v.1.15,2013-05-05 17:11:00,
2013-05-05 13:12:00,73.2,54.0,29.91,WNW,298,7.0,12.0,51,0.00,,,0.03,Wunderground v.1.15,2013-05-05 17:12:00,
2013-05-05 13:13:00,73.4,54.2,29.91,NNW,328,10.0,12.0,51,0.00,,,0.03,Wunderground v.1.15,2013-05-05 17:13:00,
2013-05-05 13:16:00,73.2,54.5,29.91,West,276,9.0,17.0,52,0.00,,,0.03,Wunderground v.1.15,2013-05-05 17:16:00,
2013-05-05 13:17:00,73.2,55.0,29.91,NW,319,5.0,17.0,53,0.00,,,0.03,Wunderground v.1.15,2013-05-05 17:17:00,
2013-05-05 13:18:00,73.3,55.6,29.91,West,270,5.0,17.0,54,0.00,,,0.03,Wunderground v.1.15,2013-05-05 17:18:00,
2013-05-05 13:21:00,73.1,53.4,29.91,NW,316,7.0,17.0,50,0.00,,,0.03,Wunderground v.1.15,2013-05-05 17:21:00,
2013-05-05 13:22:00,72.9,53.2,29.91,WNW,283,4.0,17.0,50,0.00,,,0.03,Wunderground v.1.15,2013-05-05 17:22:00,
2013-05-05 13:24:00,72.8,53.6,29.91,West,280,5.0,17.0,51,0.00,,,0.03,Wunderground v.1.15,2013-05-05 17:24:00,
2013-05-05 13:26:00,72.9,53.7,29.91,WNW,289,11.0,17.0,51,0.00,,,0.03,Wunderground v.1.15,2013-05-05 17:26:00,
2013-05-05 13:27:00,72.9,54.2,29.91,West,279,9.0,17.0,52,0.00,,,0.03,Wunderground v.1.15,2013-05-05 17:27:00,
2013-05-05 13:29:00,73.1,54.4,29.91,NW,316,11.0,19.0,52,0.00,,,0.03,Wunderground v.1.15,2013-05-05 17:29:00,
2013-05-05 13:31:00,73.0,53.8,29.91,NNW,338,10.0,17.0,51,0.00,,,0.03,Wunderground v.1.15,2013-05-05 17:31:00,
2013-05-05 13:32:00,72.9,53.7,29.91,WSW,257,5.0,17.0,51,0.00,,,0.03,Wunderground v.1.15,2013-05-05 17:32:00,
2013-05-05 13:34:00,73.0,53.8,29.91,WNW,302,6.0,17.0,51,0.00,,,0.03,Wunderground v.1.15,2013-05-05 17:34:00,
2013-05-05 13:36:00,73.3,54.1,29.91,WNW,288,4.0,17.0,51,0.00,,,0.03,Wunderground v.1.15,2013-05-05 17:36:00,
2013-05-05 13:37:00,73.5,53.7,29.91,NW,312,10.0,17.0,50,0.00,,,0.03,Wunderground v.1.15,2013-05-05 17:37:00,
2013-05-05 13:38:00,73.4,53.6,29.91,NW,326,6.0,17.0,50,0.00,,,0.03,Wunderground v.1.15,2013-05-05 17:38:00,
2013-05-05 13:39:00,73.4,54.7,29.91,WNW,288,10.0,17.0,52,0.00,,,0.03,Wunderground v.1.15,2013-05-05 17:39:00,
2013-05-05 13:40:00,73.4,53.6,29.91,WNW,301,9.0,10.0,50,0.00,,,0.03,Wunderground v.1.15,2013-05-05 17:40:00,
2013-05-05 13:41:00,73.4,52.5,29.91,NW,318,4.0,12.0,48,0.00,,,0.03,Wunderground v.1.15,2013-05-05 17:41:00,
2013-05-05 13:42:00,73.4,53.1,29.91,West,281,9.0,12.0,49,0.00,,,0.03,Wunderground v.1.15,2013-05-05 17:42:00,
2013-05-05 13:43:00,73.3,53.0,29.91,WSW,247,4.0,12.0,49,0.00,,,0.03,Wunderground v.1.15,2013-05-05 17:43:00,
2013-05-05 13:44:00,73.3,53.5,29.91,NNW,330,7.0,12.0,50,0.00,,,0.03,Wunderground v.1.15,2013-05-05 17:44:00,
2013-05-05 13:45:00,73.3,53.5,29.91,WNW,283,3.0,12.0,50,0.00,,,0.03,Wunderground v.1.15,2013-05-05 17:45:00,
2013-05-05 13:47:00,73.6,54.9,29.91,North,349,5.0,12.0,52,0.00,,,0.03,Wunderground v.1.15,2013-05-05 17:47:00,
2013-05-05 13:48:00,73.8,54.0,29.91,NW,305,4.0,12.0,50,0.00,,,0.03,Wunderground v.1.15,2013-05-05 17:48:00,
2013-05-05 13:49:00,73.9,55.2,29.91,North,349,4.0,7.0,52,0.00,,,0.03,Wunderground v.1.15,2013-05-05 17:49:00,
2013-05-05 13:50:00,74.0,55.3,29.91,NW,319,6.0,8.0,52,0.00,,,0.03,Wunderground v.1.15,2013-05-05 17:50:00,
2013-05-05 13:52:00,74.1,55.3,29.91,SW,236,10.0,14.0,52,0.00,,,0.03,Wunderground v.1.15,2013-05-05 17:52:00,
2013-05-05 13:53:00,74.4,55.6,29.91,WNW,301,5.0,14.0,52,0.00,,,0.03,Wunderground v.1.15,2013-05-05 17:53:00,
2013-05-05 13:54:00,74.4,55.6,29.91,WSW,252,4.0,14.0,52,0.00,,,0.03,Wunderground v.1.15,2013-05-05 17:54:00,
2013-05-05 13:55:00,74.3,55.0,29.91,NW,319,9.0,14.0,51,0.00,,,0.03,Wunderground v.1.15,2013-05-05 17:55:00,
2013-05-05 13:57:00,74.0,55.3,29.91,West,262,3.0,14.0,52,0.00,,,0.03,Wunderground v.1.15,2013-05-05 17:57:00,
2013-05-05 13:58:00,74.0,54.2,29.91,West,271,8.0,14.0,50,0.00,,,0.03,Wunderground v.1.15,2013-05-05 17:58:00,
2013-05-05 13:59:00,74.0,54.2,29.91,WNW,293,8.0,14.0,50,0.00,,,0.03,Wunderground v.1.15,2013-05-05 17:59:00,
2013-05-05 14:00:00,73.9,54.1,29.91,WNW,301,10.0,13.0,50,0.00,,,0.03,Wunderground v.1.15,2013-05-05 18:00:00,
2013-05-05 14:02:00,73.7,55.0,29.91,NW,319,12.0,13.0,52,0.00,,,0.03,Wunderground v.1.15,2013-05-05 18:02:00,
2013-05-05 14:03:00,73.8,54.0,29.91,WNW,295,6.0,13.0,50,0.00,,,0.03,Wunderground v.1.15,2013-05-05 18:03:00,
2013-05-05 14:04:00,73.7,54.4,29.91,NW,326,8.0,13.0,51,0.00,,,0.03,Wunderground v.1.15,2013-05-05 18:04:00,
2013-05-05 14:05:00,73.6,54.4,29.91,NW,315,13.0,16.0,51,0.00,,,0.03,Wunderground v.1.15,2013-05-05 18:05:00,
2013-05-05 14:07:00,73.3,54.6,29.91,West,269,7.0,16.0,52,0.00,,,0.03,Wunderground v.1.15,2013-05-05 18:07:00,
2013-05-05 14:08:00,73.3,55.1,29.91,WNW,287,5.0,16.0,53,0.00,,,0.03,Wunderground v.1.15,2013-05-05 18:08:00,
2013-05-05 14:09:00,73.3,55.1,29.91,West,264,9.0,16.0,53,0.00,,,0.03,Wunderground v.1.15,2013-05-05 18:09:00,
2013-05-05 14:10:00,73.4,55.2,29.91,West,271,8.0,11.0,53,0.00,,,0.03,Wunderground v.1.15,2013-05-05 18:10:00,
2013-05-05 14:12:00,73.4,54.2,29.91,NW,320,7.0,13.0,51,0.00,,,0.03,Wunderground v.1.15,2013-05-05 18:12:00,
2013-05-05 14:13:00,73.5,53.7,29.91,NW,315,9.0,13.0,50,0.00,,,0.03,Wunderground v.1.15,2013-05-05 18:13:00,
2013-05-05 14:14:00,73.5,53.7,29.91,West,268,4.0,13.0,50,0.00,,,0.03,Wunderground v.1.15,2013-05-05 18:14:00,
2013-05-05 14:15:00,73.6,54.4,29.91,WNW,289,5.0,13.0,51,0.00,,,0.03,Wunderground v.1.15,2013-05-05 18:15:00,
2013-05-05 14:17:00,74.0,54.7,29.91,WNW,291,13.0,16.0,51,0.00,,,0.03,Wunderground v.1.15,2013-05-05 18:17:00,
2013-05-05 14:18:00,74.1,53.7,29.91,WNW,302,8.0,16.0,49,0.00,,,0.03,Wunderground v.1.15,2013-05-05 18:18:00,
2013-05-05 14:19:00,74.0,53.6,29.91,WNW,289,9.0,16.0,49,0.00,,,0.03,Wunderground v.1.15,2013-05-05 18:19:00,
2013-05-05 14:20:00,74.0,54.2,29.91,WNW,287,2.0,12.0,50,0.00,,,0.03,Wunderground v.1.15,2013-05-05 18:20:00,
2013-05-05 14:22:00,74.1,54.3,29.91,NW,314,8.0,13.0,50,0.00,,,0.03,Wunderground v.1.15,2013-05-05 18:22:00,
2013-05-05 14:23:00,74.0,53.6,29.91,NW,323,8.0,13.0,49,0.00,,,0.03,Wunderground v.1.15,2013-05-05 18:23:00,
2013-05-05 14:24:00,73.9,54.1,29.91,NNW,333,5.0,13.0,50,0.00,,,0.03,Wunderground v.1.15,2013-05-05 18:24:00,
2013-05-05 14:25:00,73.9,54.1,29.91,West,281,12.0,15.0,50,0.00,,,0.03,Wunderground v.1.15,2013-05-05 18:25:00,
2013-05-05 14:27:00,73.7,54.4,29.91,WSW,255,6.0,15.0,51,0.00,,,0.03,Wunderground v.1.15,2013-05-05 18:27:00,
2013-05-05 14:28:00,73.7,54.4,29.91,NW,312,10.0,15.0,51,0.00,,,0.03,Wunderground v.1.15,2013-05-05 18:28:00,
2013-05-05 14:29:00,73.7,54.4,29.91,WNW,295,7.0,8.0,51,0.00,,,0.03,Wunderground v.1.15,2013-05-05 18:29:00,
2013-05-05 14:30:00,73.7,55.0,29.91,WNW,289,10.0,10.0,52,0.00,,,0.03,Wunderground v.1.15,2013-05-05 18:30:00,
2013-05-05 14:32:00,73.8,55.1,29.91,NW,318,8.0,11.0,52,0.00,,,0.03,Wunderground v.1.15,2013-05-05 18:32:00,
2013-05-05 14:33:00,73.9,54.1,29.91,West,273,5.0,12.0,50,0.00,,,0.03,Wunderground v.1.15,2013-05-05 18:33:00,
2013-05-05 14:35:00,73.9,53.0,29.91,WNW,300,8.0,13.0,48,0.00,,,0.03,Wunderground v.1.15,2013-05-05 18:35:00,
2013-05-05 14:36:00,73.8,53.4,29.91,WNW,290,10.0,13.0,49,0.00,,,0.03,Wunderground v.1.15,2013-05-05 18:36:00,
2013-05-05 14:38:00,73.9,54.1,29.91,NW,308,8.0,13.0,50,0.00,,,0.03,Wunderground v.1.15,2013-05-05 18:38:00,
2013-05-05 14:39:00,73.9,54.6,29.91,West,277,7.0,13.0,51,0.00,,,0.03,Wunderground v.1.15,2013-05-05 18:39:00,
2013-05-05 14:40:00,73.9,55.2,29.91,West,273,3.0,8.0,52,0.00,,,0.03,Wunderground v.1.15,2013-05-05 18:40:00,
2013-05-05 14:42:00,74.2,56.0,29.91,WNW,300,5.0,14.0,53,0.00,,,0.03,Wunderground v.1.15,2013-05-05 18:42:00,
2013-05-05 14:43:00,74.3,55.5,29.91,WNW,302,7.0,14.0,52,0.00,,,0.03,Wunderground v.1.15,2013-05-05 18:43:00,
2013-05-05 14:44:00,74.2,56.0,29.91,NW,306,14.0,14.0,53,0.00,,,0.03,Wunderground v.1.15,2013-05-05 18:44:00,
2013-05-05 14:45:00,74.2,55.4,29.91,WNW,287,7.0,14.0,52,0.00,,,0.03,Wunderground v.1.15,2013-05-05 18:45:00,
2013-05-05 14:47:00,73.9,55.2,29.91,NW,320,3.0,14.0,52,0.00,,,0.03,Wunderground v.1.15,2013-05-05 18:47:00,
2013-05-05 14:48:00,73.8,55.6,29.91,NW,319,4.0,14.0,53,0.00,,,0.03,Wunderground v.1.15,2013-05-05 18:48:00,
2013-05-05 14:49:00,73.8,55.6,29.91,NNW,336,5.0,14.0,53,0.00,,,0.03,Wunderground v.1.15,2013-05-05 18:49:00,
2013-05-05 14:50:00,73.8,55.1,29.91,WNW,290,7.0,15.0,52,0.00,,,0.03,Wunderground v.1.15,2013-05-05 18:50:00,
2013-05-05 14:52:00,73.8,55.6,29.91,WNW,297,6.0,15.0,53,0.00,,,0.03,Wunderground v.1.15,2013-05-05 18:52:00,
2013-05-05 14:54:00,73.8,55.6,29.91,WNW,298,3.0,15.0,53,0.00,,,0.03,Wunderground v.1.15,2013-05-05 18:54:00,
2013-05-05 14:55:00,73.9,56.7,29.90,NW,305,5.0,15.0,55,0.00,,,0.03,Wunderground v.1.15,2013-05-05 18:55:00,
2013-05-05 14:56:00,74.0,56.8,29.90,WNW,297,6.0,15.0,55,0.00,,,0.03,Wunderground v.1.15,2013-05-05 18:56:00,
2013-05-05 14:57:00,74.1,56.9,29.90,West,271,6.0,15.0,55,0.00,,,0.03,Wunderground v.1.15,2013-05-05 18:57:00,
2013-05-05 14:59:00,74.2,56.0,29.90,West,281,4.0,15.0,53,0.00,,,0.03,Wunderground v.1.15,2013-05-05 18:59:00,
2013-05-05 15:00:00,74.3,56.1,29.90,NW,319,7.0,12.0,53,0.00,,,0.03,Wunderground v.1.15,2013-05-05 19:00:00,
2013-05-05 15:01:00,74.4,56.2,29.90,West,264,4.0,12.0,53,0.00,,,0.03,Wunderground v.1.15,2013-05-05 19:01:00,
2013-05-05 15:03:00,74.3,55.5,29.90,WSW,239,10.0,14.0,52,0.00,,,0.03,Wunderground v.1.15,2013-05-05 19:03:00,
2013-05-05 15:04:00,74.2,55.4,29.90,WSW,248,6.0,14.0,52,0.00,,,0.03,Wunderground v.1.15,2013-05-05 19:04:00,
2013-05-05 15:05:00,74.1,55.9,29.90,WNW,287,4.0,14.0,53,0.00,,,0.03,Wunderground v.1.15,2013-05-05 19:05:00,
2013-05-05 15:06:00,74.0,55.8,29.90,West,263,7.0,14.0,53,0.00,,,0.03,Wunderground v.1.15,2013-05-05 19:06:00,
2013-05-05 15:08:00,74.2,56.0,29.90,WNW,289,8.0,14.0,53,0.00,,,0.03,Wunderground v.1.15,2013-05-05 19:08:00,
2013-05-05 15:09:00,74.1,55.3,29.90,NW,326,5.0,14.0,52,0.00,,,0.03,Wunderground v.1.15,2013-05-05 19:09:00,
2013-05-05 15:10:00,74.1,55.9,29.90,West,271,8.0,10.0,53,0.00,,,0.03,Wunderground v.1.15,2013-05-05 19:10:00,
2013-05-05 15:11:00,74.1,56.4,29.90,WNW,300,6.0,16.0,54,0.00,,,0.03,Wunderground v.1.15,2013-05-05 19:11:00,
2013-05-05 15:13:00,73.7,56.0,29.90,WNW,288,10.0,16.0,54,0.00,,,0.03,Wunderground v.1.15,2013-05-05 19:13:00,
2013-05-05 15:14:00,73.8,56.1,29.90,WNW,295,8.0,16.0,54,0.00,,,0.03,Wunderground v.1.15,2013-05-05 19:14:00,
2013-05-05 15:15:00,73.9,56.2,29.90,West,278,7.0,16.0,54,0.00,,,0.03,Wunderground v.1.15,2013-05-05 19:15:00,
2013-05-05 15:16:00,74.0,56.3,29.90,NNW,342,14.0,16.0,54,0.00,,,0.03,Wunderground v.1.15,2013-05-05 19:16:00,
2013-05-05 15:18:00,73.8,55.6,29.90,WNW,288,5.0,16.0,53,0.00,,,0.03,Wunderground v.1.15,2013-05-05 19:18:00,
2013-05-05 15:20:00,73.7,55.5,29.90,WNW,283,9.0,10.0,53,0.00,,,0.03,Wunderground v.1.15,2013-05-05 19:20:00,
2013-05-05 15:21:00,73.6,55.9,29.90,NNW,339,9.0,10.0,54,0.00,,,0.03,Wunderground v.1.15,2013-05-05 19:21:00,
2013-05-05 15:23:00,73.9,56.7,29.90,WNW,287,8.0,10.0,55,0.00,,,0.03,Wunderground v.1.15,2013-05-05 19:23:00,
2013-05-05 15:25:00,74.0,56.3,29.90,WNW,293,9.0,10.0,54,0.00,,,0.03,Wunderground v.1.15,2013-05-05 19:25:00,
2013-05-05 15:26:00,73.8,55.6,29.90,SSW,212,10.0,13.0,53,0.00,,,0.03,Wunderground v.1.15,2013-05-05 19:26:00,
2013-05-05 15:27:00,73.7,56.0,29.90,West,280,4.0,13.0,54,0.00,,,0.03,Wunderground v.1.15,2013-05-05 19:27:00,
2013-05-05 15:29:00,73.7,56.0,29.90,NW,323,9.0,16.0,54,0.00,,,0.03,Wunderground v.1.15,2013-05-05 19:29:00,
2013-05-05 15:30:00,73.6,55.4,29.90,WNW,283,9.0,14.0,53,0.00,,,0.03,Wunderground v.1.15,2013-05-05 19:30:00,
2013-05-05 15:31:00,73.5,55.3,29.90,WNW,288,8.0,14.0,53,0.00,,,0.03,Wunderground v.1.15,2013-05-05 19:31:00,
2013-05-05 15:32:00,73.4,55.2,29.90,West,278,8.0,14.0,53,0.00,,,0.03,Wunderground v.1.15,2013-05-05 19:32:00,
2013-05-05 15:34:00,73.3,55.6,29.90,WNW,298,14.0,14.0,54,0.00,,,0.03,Wunderground v.1.15,2013-05-05 19:34:00,
2013-05-05 15:35:00,73.1,55.5,29.90,WSW,257,7.0,14.0,54,0.00,,,0.03,Wunderground v.1.15,2013-05-05 19:35:00,
2013-05-05 15:37:00,73.2,56.6,29.89,NW,323,4.0,14.0,56,0.00,,,0.03,Wunderground v.1.15,2013-05-05 19:37:00,
2013-05-05 15:39:00,73.2,55.6,29.89,WNW,291,10.0,19.0,54,0.00,,,0.03,Wunderground v.1.15,2013-05-05 19:39:00,
2013-05-05 15:40:00,73.1,56.0,29.89,WNW,298,7.0,15.0,55,0.00,,,0.03,Wunderground v.1.15,2013-05-05 19:40:00,
2013-05-05 15:41:00,73.1,56.0,29.89,NW,318,14.0,15.0,55,0.00,,,0.03,Wunderground v.1.15,2013-05-05 19:41:00,
2013-05-05 15:42:00,73.2,56.6,29.89,NW,311,8.0,15.0,56,0.00,,,0.03,Wunderground v.1.15,2013-05-05 19:42:00,
2013-05-05 15:44:00,73.4,56.2,29.89,WNW,284,8.0,15.0,55,0.00,,,0.03,Wunderground v.1.15,2013-05-05 19:44:00,
2013-05-05 15:45:00,73.4,56.2,29.89,WNW,297,8.0,15.0,55,0.00,,,0.03,Wunderground v.1.15,2013-05-05 19:45:00,
2013-05-05 15:46:00,73.5,56.3,29.89,NW,309,4.0,15.0,55,0.00,,,0.03,Wunderground v.1.15,2013-05-05 19:46:00,
2013-05-05 15:47:00,73.4,56.2,29.89,NW,323,13.0,18.0,55,0.00,,,0.03,Wunderground v.1.15,2013-05-05 19:47:00,
2013-05-05 15:48:00,73.3,56.2,29.89,WNW,287,10.0,18.0,55,0.00,,,0.03,Wunderground v.1.15,2013-05-05 19:48:00,
2013-05-05 15:50:00,73.2,56.1,29.89,WNW,290,6.0,8.0,55,0.00,,,0.03,Wunderground v.1.15,2013-05-05 19:50:00,
2013-05-05 15:51:00,73.3,56.2,29.89,NW,320,11.0,17.0,55,0.00,,,0.03,Wunderground v.1.15,2013-05-05 19:51:00,
2013-05-05 15:52:00,73.3,56.2,29.89,WNW,295,4.0,17.0,55,0.00,,,0.03,Wunderground v.1.15,2013-05-05 19:52:00,
2013-05-05 15:53:00,73.3,56.2,29.89,NNW,333,11.0,17.0,55,0.00,,,0.03,Wunderground v.1.15,2013-05-05 19:53:00,
2013-05-05 15:55:00,73.4,56.7,29.89,WNW,285,9.0,17.0,56,0.00,,,0.03,Wunderground v.1.15,2013-05-05 19:55:00,
2013-05-05 15:56:00,73.4,56.7,29.89,WNW,291,7.0,17.0,56,0.00,,,0.03,Wunderground v.1.15,2013-05-05 19:56:00,
2013-05-05 15:57:00,73.4,56.2,29.89,WNW,288,12.0,17.0,55,0.00,,,0.03,Wunderground v.1.15,2013-05-05 19:57:00,
2013-05-05 15:58:00,73.3,56.2,29.89,NW,313,8.0,18.0,55,0.00,,,0.03,Wunderground v.1.15,2013-05-05 19:58:00,
2013-05-05 16:00:00,73.2,56.1,29.89,WNW,285,5.0,8.0,55,0.00,,,0.03,Wunderground v.1.15,2013-05-05 20:00:00,
2013-05-05 16:01:00,73.3,56.2,29.89,NNW,330,9.0,12.0,55,0.00,,,0.03,Wunderground v.1.15,2013-05-05 20:01:00,
2013-05-05 16:02:00,73.1,56.0,29.89,WNW,285,10.0,15.0,55,0.00,,,0.03,Wunderground v.1.15,2013-05-05 20:02:00,
2013-05-05 16:03:00,73.2,56.6,29.89,WSW,252,3.0,15.0,56,0.00,,,0.03,Wunderground v.1.15,2013-05-05 20:03:00,
2013-05-05 16:05:00,73.3,56.7,29.89,WNW,288,10.0,17.0,56,0.00,,,0.03,Wunderground v.1.15,2013-05-05 20:05:00,
2013-05-05 16:06:00,73.2,56.1,29.89,North,355,4.0,17.0,55,0.00,,,0.03,Wunderground v.1.15,2013-05-05 20:06:00,
2013-05-05 16:07:00,73.1,56.0,29.89,WNW,283,9.0,17.0,55,0.00,,,0.03,Wunderground v.1.15,2013-05-05 20:07:00,
2013-05-05 16:08:00,73.0,55.9,29.89,West,277,7.0,17.0,55,0.00,,,0.03,Wunderground v.1.15,2013-05-05 20:08:00,
2013-05-05 16:10:00,73.1,56.5,29.89,WNW,285,16.0,16.0,56,0.00,,,0.03,Wunderground v.1.15,2013-05-05 20:10:00,
2013-05-05 16:11:00,73.0,55.9,29.89,WNW,297,13.0,18.0,55,0.00,,,0.03,Wunderground v.1.15,2013-05-05 20:11:00,
2013-05-05 16:12:00,72.8,55.2,29.89,WNW,292,10.0,18.0,54,0.00,,,0.03,Wunderground v.1.15,2013-05-05 20:12:00,
2013-05-05 16:13:00,72.8,55.2,29.89,West,270,6.0,18.0,54,0.00,,,0.03,Wunderground v.1.15,2013-05-05 20:13:00,
2013-05-05 16:15:00,72.9,55.8,29.89,North,9,5.0,18.0,55,0.00,,,0.03,Wunderground v.1.15,2013-05-05 20:15:00,
2013-05-05 16:16:00,72.9,54.8,29.89,WNW,290,10.0,18.0,53,0.00,,,0.03,Wunderground v.1.15,2013-05-05 20:16:00,
2013-05-05 16:17:00,72.9,54.8,29.89,West,281,7.0,18.0,53,0.00,,,0.03,Wunderground v.1.15,2013-05-05 20:17:00,
2013-05-05 16:18:00,72.9,54.2,29.89,NNW,337,11.0,18.0,52,0.00,,,0.03,Wunderground v.1.15,2013-05-05 20:18:00,
2013-05-05 16:20:00,72.9,53.7,29.89,West,272,11.0,16.0,51,0.00,,,0.03,Wunderground v.1.15,2013-05-05 20:20:00,
2013-05-05 16:21:00,72.9,54.2,29.89,NW,305,14.0,16.0,52,0.00,,,0.03,Wunderground v.1.15,2013-05-05 20:21:00,
2013-05-05 16:22:00,72.9,54.2,29.89,West,266,9.0,19.0,52,0.00,,,0.03,Wunderground v.1.15,2013-05-05 20:22:00,
2013-05-05 16:23:00,72.9,54.2,29.89,NNW,335,10.0,19.0,52,0.00,,,0.03,Wunderground v.1.15,2013-05-05 20:23:00,
2013-05-05 16:25:00,73.1,54.9,29.89,West,279,11.0,19.0,53,0.00,,,0.03,Wunderground v.1.15,2013-05-05 20:25:00,
2013-05-05 16:27:00,72.9,53.7,29.89,WNW,302,12.0,19.0,51,0.00,,,0.03,Wunderground v.1.15,2013-05-05 20:27:00,
2013-05-05 16:28:00,73.0,54.3,29.89,WNW,292,9.0,19.0,52,0.00,,,0.03,Wunderground v.1.15,2013-05-05 20:28:00,
2013-05-05 16:29:00,73.1,54.4,29.89,North,352,5.0,19.0,52,0.00,,,0.03,Wunderground v.1.15,2013-05-05 20:29:00,
2013-05-05 16:30:00,73.2,55.0,29.89,NW,319,7.0,12.0,53,0.00,,,0.03,Wunderground v.1.15,2013-05-05 20:30:00,
2013-05-05 16:32:00,73.2,54.5,29.89,NW,319,5.0,13.0,52,0.00,,,0.03,Wunderground v.1.15,2013-05-05 20:32:00,
2013-05-05 16:33:00,73.2,54.5,29.89,WNW,302,10.0,14.0,52,0.00,,,0.03,Wunderground v.1.15,2013-05-05 20:33:00,
2013-05-05 16:34:00,73.2,55.0,29.89,WNW,285,8.0,14.0,53,0.00,,,0.03,Wunderground v.1.15,2013-05-05 20:34:00,
2013-05-05 16:35:00,73.1,54.9,29.89,WNW,300,8.0,14.0,53,0.00,,,0.03,Wunderground v.1.15,2013-05-05 20:35:00,
2013-05-05 16:37:00,73.2,55.0,29.89,WSW,257,8.0,14.0,53,0.00,,,0.03,Wunderground v.1.15,2013-05-05 20:37:00,
2013-05-05 16:38:00,73.2,55.0,29.89,WNW,298,7.0,14.0,53,0.00,,,0.03,Wunderground v.1.15,2013-05-05 20:38:00,
2013-05-05 16:39:00,73.2,55.0,29.89,WNW,283,16.0,16.0,53,0.00,,,0.03,Wunderground v.1.15,2013-05-05 20:39:00,
2013-05-05 16:40:00,73.0,54.3,29.89,NNW,329,8.0,12.0,52,0.00,,,0.03,Wunderground v.1.15,2013-05-05 20:40:00,
2013-05-05 16:43:00,72.9,55.3,29.89,NW,323,6.0,18.0,54,0.00,,,0.03,Wunderground v.1.15,2013-05-05 20:43:00,
2013-05-05 16:44:00,72.9,54.8,29.89,WNW,298,6.0,18.0,53,0.00,,,0.03,Wunderground v.1.15,2013-05-05 20:44:00,
2013-05-05 16:45:00,72.9,55.3,29.89,WNW,301,8.0,18.0,54,0.00,,,0.03,Wunderground v.1.15,2013-05-05 20:45:00,
2013-05-05 16:48:00,72.9,54.8,29.89,WNW,290,6.0,18.0,53,0.00,,,0.03,Wunderground v.1.15,2013-05-05 20:48:00,
2013-05-05 16:49:00,73.1,55.5,29.89,West,263,6.0,18.0,54,0.00,,,0.03,Wunderground v.1.15,2013-05-05 20:49:00,
2013-05-05 16:50:00,73.0,54.9,29.89,WNW,300,18.0,18.0,53,0.00,,,0.03,Wunderground v.1.15,2013-05-05 20:50:00,
2013-05-05 16:53:00,72.7,54.6,29.89,WNW,284,9.0,18.0,53,0.00,,,0.03,Wunderground v.1.15,2013-05-05 20:53:00,
2013-05-05 16:54:00,72.6,54.5,29.90,West,280,7.0,18.0,53,0.00,,,0.03,Wunderground v.1.15,2013-05-05 20:54:00,
2013-05-05 16:56:00,72.7,55.6,29.89,WNW,293,4.0,18.0,55,0.00,,,0.03,Wunderground v.1.15,2013-05-05 20:56:00,
2013-05-05 16:58:00,73.1,56.0,29.90,WSW,248,7.0,18.0,55,0.00,,,0.03,Wunderground v.1.15,2013-05-05 20:58:00,
2013-05-05 16:59:00,73.2,56.1,29.90,West,269,6.0,18.0,55,0.00,,,0.03,Wunderground v.1.15,2013-05-05 20:59:00,
2013-05-05 17:01:00,73.4,55.7,29.90,NNW,337,8.0,13.0,54,0.00,,,0.03,Wunderground v.1.15,2013-05-05 21:01:00,
2013-05-05 17:04:00,73.2,55.6,29.90,NW,312,4.0,15.0,54,0.00,,,0.03,Wunderground v.1.15,2013-05-05 21:04:00,
2013-05-05 17:05:00,73.2,55.0,29.90,NNW,344,7.0,15.0,53,0.00,,,0.03,Wunderground v.1.15,2013-05-05 21:05:00,
2013-05-05 17:06:00,73.3,55.1,29.90,NW,311,8.0,15.0,53,0.00,,,0.03,Wunderground v.1.15,2013-05-05 21:06:00,
2013-05-05 17:09:00,73.1,55.5,29.90,NW,313,10.0,15.0,54,0.00,,,0.03,Wunderground v.1.15,2013-05-05 21:09:00,
2013-05-05 17:10:00,72.9,55.3,29.90,NW,305,7.0,12.0,54,0.00,,,0.03,Wunderground v.1.15,2013-05-05 21:10:00,
2013-05-05 17:11:00,72.8,55.7,29.90,WNW,288,7.0,12.0,55,0.00,,,0.03,Wunderground v.1.15,2013-05-05 21:11:00,
2013-05-05 17:14:00,72.7,55.1,29.90,NW,309,13.0,14.0,54,0.00,,,0.03,Wunderground v.1.15,2013-05-05 21:14:00,
2013-05-05 17:15:00,72.7,55.1,29.90,NNW,334,8.0,14.0,54,0.00,,,0.03,Wunderground v.1.15,2013-05-05 21:15:00,
2013-05-05 17:16:00,72.6,55.5,29.90,NW,305,3.0,16.0,55,0.00,,,0.03,Wunderground v.1.15,2013-05-05 21:16:00,
2013-05-05 17:20:00,72.3,55.7,29.90,NW,316,9.0,13.0,56,0.00,,,0.03,Wunderground v.1.15,2013-05-05 21:20:00,
2013-05-05 17:21:00,72.4,55.8,29.90,WNW,295,9.0,13.0,56,0.00,,,0.03,Wunderground v.1.15,2013-05-05 21:21:00,
2013-05-05 17:25:00,72.4,55.3,29.90,North,355,7.0,14.0,55,0.00,,,0.03,Wunderground v.1.15,2013-05-05 21:25:00,
2013-05-05 17:26:00,72.4,55.3,29.90,NW,307,10.0,14.0,55,0.00,,,0.03,Wunderground v.1.15,2013-05-05 21:26:00,
2013-05-05 17:30:00,72.4,55.8,29.90,West,266,8.0,9.0,56,0.00,,,0.03,Wunderground v.1.15,2013-05-05 21:30:00,
2013-05-05 17:31:00,72.4,55.8,29.90,NNW,328,4.0,11.0,56,0.00,,,0.03,Wunderground v.1.15,2013-05-05 21:31:00,
2013-05-05 17:35:00,72.5,55.9,29.90,WNW,301,12.0,12.0,56,0.00,,,0.03,Wunderground v.1.15,2013-05-05 21:35:00,
2013-05-05 17:36:00,72.4,55.8,29.90,WNW,301,7.0,13.0,56,0.00,,,0.03,Wunderground v.1.15,2013-05-05 21:36:00,
2013-05-05 17:37:00,72.4,55.8,29.90,NNW,329,5.0,13.0,56,0.00,,,0.03,Wunderground v.1.15,2013-05-05 21:37:00,
2013-05-05 17:40:00,72.3,55.2,29.90,West,280,3.0,15.0,55,0.00,,,0.03,Wunderground v.1.15,2013-05-05 21:40:00,
2013-05-05 17:41:00,72.2,55.6,29.90,NW,319,6.0,15.0,56,0.00,,,0.03,Wunderground v.1.15,2013-05-05 21:41:00,
2013-05-05 17:42:00,72.2,55.6,29.90,NNW,345,9.0,15.0,56,0.00,,,0.03,Wunderground v.1.15,2013-05-05 21:42:00,
2013-05-05 17:45:00,72.2,55.6,29.90,NNE,30,7.0,15.0,56,0.00,,,0.03,Wunderground v.1.15,2013-05-05 21:45:00,
2013-05-05 17:46:00,72.3,55.2,29.90,WNW,287,6.0,15.0,55,0.00,,,0.03,Wunderground v.1.15,2013-05-05 21:46:00,
2013-05-05 17:47:00,72.4,55.8,29.90,West,272,5.0,15.0,56,0.00,,,0.03,Wunderground v.1.15,2013-05-05 21:47:00,
2013-05-05 17:50:00,72.6,56.0,29.90,NW,305,8.0,10.0,56,0.00,,,0.03,Wunderground v.1.15,2013-05-05 21:50:00,
2013-05-05 17:51:00,72.6,56.0,29.90,WNW,288,6.0,11.0,56,0.00,,,0.03,Wunderground v.1.15,2013-05-05 21:51:00,
2013-05-05 17:52:00,72.6,56.0,29.90,WNW,298,8.0,11.0,56,0.00,,,0.03,Wunderground v.1.15,2013-05-05 21:52:00,
2013-05-05 17:56:00,72.3,56.2,29.90,NW,305,10.0,14.0,57,0.00,,,0.03,Wunderground v.1.15,2013-05-05 21:56:00,
2013-05-05 17:57:00,72.2,55.6,29.90,NNW,328,6.0,15.0,56,0.00,,,0.03,Wunderground v.1.15,2013-05-05 21:57:00,
2013-05-05 18:01:00,72.1,56.5,29.90,West,263,5.0,13.0,58,0.00,,,0.03,Wunderground v.1.15,2013-05-05 22:01:00,
2013-05-05 18:02:00,72.2,56.6,29.90,NNW,331,8.0,15.0,58,0.00,,,0.03,Wunderground v.1.15,2013-05-05 22:02:00,
2013-05-05 18:06:00,72.2,56.6,29.90,North,356,5.0,15.0,58,0.00,,,0.03,Wunderground v.1.15,2013-05-05 22:06:00,
2013-05-05 18:07:00,72.2,57.1,29.90,WNW,287,5.0,15.0,59,0.00,,,0.03,Wunderground v.1.15,2013-05-05 22:07:00,
2013-05-05 18:08:00,72.2,57.1,29.90,NW,309,6.0,15.0,59,0.00,,,0.03,Wunderground v.1.15,2013-05-05 22:08:00,
2013-05-05 18:11:00,72.2,57.1,29.90,WNW,294,8.0,10.0,59,0.00,,,0.03,Wunderground v.1.15,2013-05-05 22:11:00,
2013-05-05 18:12:00,72.2,57.1,29.90,NW,323,8.0,10.0,59,0.00,,,0.03,Wunderground v.1.15,2013-05-05 22:12:00,
2013-05-05 18:13:00,72.2,57.1,29.90,NW,307,5.0,12.0,59,0.00,,,0.03,Wunderground v.1.15,2013-05-05 22:13:00,
2013-05-05 18:17:00,72.3,57.6,29.91,NNW,329,4.0,12.0,60,0.00,,,0.03,Wunderground v.1.15,2013-05-05 22:17:00,
2013-05-05 18:19:00,72.3,57.6,29.90,WNW,290,5.0,12.0,60,0.00,,,0.03,Wunderground v.1.15,2013-05-05 22:19:00,
2013-05-05 18:22:00,72.4,57.3,29.91,WSW,257,13.0,13.0,59,0.00,,,0.03,Wunderground v.1.15,2013-05-05 22:22:00,
2013-05-05 18:23:00,72.2,57.5,29.91,West,281,10.0,13.0,60,0.00,,,0.03,Wunderground v.1.15,2013-05-05 22:23:00,
2013-05-05 18:24:00,72.1,57.4,29.91,WNW,297,6.0,13.0,60,0.00,,,0.03,Wunderground v.1.15,2013-05-05 22:24:00,
2013-05-05 18:27:00,71.9,57.7,29.91,West,269,2.0,13.0,61,0.00,,,0.03,Wunderground v.1.15,2013-05-05 22:27:00,
2013-05-05 18:28:00,71.9,57.7,29.91,West,278,7.0,13.0,61,0.00,,,0.03,Wunderground v.1.15,2013-05-05 22:28:00,
2013-05-05 18:29:00,71.8,57.2,29.91,West,260,3.0,13.0,60,0.00,,,0.03,Wunderground v.1.15,2013-05-05 22:29:00,
2013-05-05 18:32:00,71.8,57.6,29.91,West,273,1.0,11.0,61,0.00,,,0.03,Wunderground v.1.15,2013-05-05 22:32:00,
2013-05-05 18:33:00,71.8,58.1,29.91,NW,305,8.0,13.0,62,0.00,,,0.03,Wunderground v.1.15,2013-05-05 22:33:00,
2013-05-05 18:34:00,71.8,58.1,29.91,WSW,245,4.0,13.0,62,0.00,,,0.03,Wunderground v.1.15,2013-05-05 22:34:00,
2013-05-05 18:37:00,71.8,58.5,29.91,West,267,5.0,13.0,63,0.00,,,0.03,Wunderground v.1.15,2013-05-05 22:37:00,
2013-05-05 18:38:00,71.8,58.5,29.91,WSW,242,5.0,13.0,63,0.00,,,0.03,Wunderground v.1.15,2013-05-05 22:38:00,
2013-05-05 18:39:00,71.9,58.6,29.91,West,281,9.0,10.0,63,0.00,,,0.03,Wunderground v.1.15,2013-05-05 22:39:00,
2013-05-05 18:42:00,71.8,58.1,29.91,NW,307,5.0,11.0,62,0.00,,,0.03,Wunderground v.1.15,2013-05-05 22:42:00,
2013-05-05 18:44:00,71.8,58.1,29.91,WNW,288,6.0,11.0,62,0.00,,,0.03,Wunderground v.1.15,2013-05-05 22:44:00,
2013-05-05 18:45:00,71.8,58.5,29.91,WNW,297,8.0,11.0,63,0.00,,,0.03,Wunderground v.1.15,2013-05-05 22:45:00,
2013-05-05 18:47:00,71.8,58.5,29.91,WNW,290,8.0,11.0,63,0.00,,,0.03,Wunderground v.1.15,2013-05-05 22:47:00,
2013-05-05 18:48:00,71.8,58.1,29.91,WNW,283,5.0,12.0,62,0.00,,,0.03,Wunderground v.1.15,2013-05-05 22:48:00,
2013-05-05 18:49:00,71.6,58.3,29.91,West,260,4.0,12.0,63,0.00,,,0.03,Wunderground v.1.15,2013-05-05 22:49:00,
2013-05-05 18:50:00,71.6,58.3,29.91,NW,326,6.0,9.0,63,0.00,,,0.03,Wunderground v.1.15,2013-05-05 22:50:00,
2013-05-05 18:52:00,71.6,58.3,29.91,West,280,4.0,11.0,63,0.00,,,0.03,Wunderground v.1.15,2013-05-05 22:52:00,
2013-05-05 18:53:00,71.5,58.2,29.91,WNW,283,2.0,11.0,63,0.00,,,0.03,Wunderground v.1.15,2013-05-05 22:53:00,
2013-05-05 18:54:00,71.5,58.2,29.91,WNW,285,9.0,14.0,63,0.00,,,0.03,Wunderground v.1.15,2013-05-05 22:54:00,
2013-05-05 18:55:00,71.5,57.8,29.91,NW,307,10.0,14.0,62,0.00,,,0.03,Wunderground v.1.15,2013-05-05 22:55:00,
2013-05-05 18:57:00,71.2,58.0,29.91,West,277,5.0,14.0,63,0.00,,,0.03,Wunderground v.1.15,2013-05-05 22:57:00,
2013-05-05 18:58:00,71.2,58.0,29.91,NW,315,1.0,14.0,63,0.00,,,0.03,Wunderground v.1.15,2013-05-05 22:58:00,
2013-05-05 18:59:00,71.3,58.5,29.91,WNW,292,5.0,14.0,64,0.00,,,0.03,Wunderground v.1.15,2013-05-05 22:59:00,
2013-05-05 19:00:00,71.3,58.5,29.91,WNW,298,5.0,10.0,64,0.00,,,0.03,Wunderground v.1.15,2013-05-05 23:00:00,
2013-05-05 19:02:00,71.3,58.5,29.91,West,271,3.0,10.0,64,0.00,,,0.03,Wunderground v.1.15,2013-05-05 23:02:00,
2013-05-05 19:03:00,71.3,58.5,29.91,West,281,3.0,10.0,64,0.00,,,0.03,Wunderground v.1.15,2013-05-05 23:03:00,
2013-05-05 19:04:00,71.3,58.5,29.92,West,265,3.0,10.0,64,0.00,,,0.03,Wunderground v.1.15,2013-05-05 23:04:00,
2013-05-05 19:05:00,71.4,58.6,29.91,West,274,2.0,10.0,64,0.00,,,0.03,Wunderground v.1.15,2013-05-05 23:05:00,
2013-05-05 19:07:00,71.4,58.6,29.92,WSW,257,7.0,10.0,64,0.00,,,0.03,Wunderground v.1.15,2013-05-05 23:07:00,
2013-05-05 19:08:00,71.4,58.6,29.92,WNW,295,4.0,10.0,64,0.00,,,0.03,Wunderground v.1.15,2013-05-05 23:08:00,
2013-05-05 19:09:00,71.4,58.6,29.92,WSW,255,3.0,5.0,64,0.00,,,0.03,Wunderground v.1.15,2013-05-05 23:09:00,
2013-05-05 19:11:00,71.4,58.6,29.92,WNW,283,9.0,11.0,64,0.00,,,0.03,Wunderground v.1.15,2013-05-05 23:11:00,
2013-05-05 19:13:00,71.3,58.5,29.92,WNW,286,6.0,11.0,64,0.00,,,0.03,Wunderground v.1.15,2013-05-05 23:13:00,
2013-05-05 19:15:00,71.2,58.8,29.92,West,271,2.0,11.0,65,0.00,,,0.03,Wunderground v.1.15,2013-05-05 23:15:00,
2013-05-05 19:16:00,71.2,58.8,29.92,NW,326,5.0,11.0,65,0.00,,,0.03,Wunderground v.1.15,2013-05-05 23:16:00,
2013-05-05 19:18:00,71.2,58.8,29.92,West,277,6.0,11.0,65,0.00,,,0.03,Wunderground v.1.15,2013-05-05 23:18:00,
2013-05-05 19:20:00,71.1,58.3,29.92,WNW,293,1.0,7.0,64,0.00,,,0.03,Wunderground v.1.15,2013-05-05 23:20:00,
2013-05-05 19:21:00,71.1,58.7,29.92,West,259,5.0,7.0,65,0.00,,,0.03,Wunderground v.1.15,2013-05-05 23:21:00,
2013-05-05 19:23:00,71.1,58.7,29.92,West,266,3.0,12.0,65,0.00,,,0.03,Wunderground v.1.15,2013-05-05 23:23:00,
2013-05-05 19:25:00,71.1,58.3,29.92,WNW,288,2.0,12.0,64,0.00,,,0.03,Wunderground v.1.15,2013-05-05 23:25:00,
2013-05-05 19:26:00,71.1,58.7,29.92,WSW,242,3.0,12.0,65,0.00,,,0.03,Wunderground v.1.15,2013-05-05 23:26:00,
2013-05-05 19:28:00,71.1,58.3,29.92,SSW,205,5.0,12.0,64,0.00,,,0.03,Wunderground v.1.15,2013-05-05 23:28:00,
2013-05-05 19:29:00,71.1,58.3,29.92,West,271,2.0,12.0,64,0.00,,,0.03,Wunderground v.1.15,2013-05-05 23:29:00,
2013-05-05 19:31:00,71.1,58.7,29.92,WNW,287,6.0,6.0,65,0.00,,,0.03,Wunderground v.1.15,2013-05-05 23:31:00,
2013-05-05 19:32:00,71.1,58.7,29.92,NW,309,2.0,7.0,65,0.00,,,0.03,Wunderground v.1.15,2013-05-05 23:32:00,
2013-05-05 19:33:00,71.0,58.6,29.92,WNW,283,3.0,7.0,65,0.00,,,0.03,Wunderground v.1.15,2013-05-05 23:33:00,
2013-05-05 19:34:00,71.0,58.6,29.92,WNW,298,4.0,7.0,65,0.00,,,0.03,Wunderground v.1.15,2013-05-05 23:34:00,
2013-05-05 19:36:00,71.0,59.1,29.92,West,264,0.0,7.0,66,0.00,,,0.03,Wunderground v.1.15,2013-05-05 23:36:00,
2013-05-05 19:37:00,71.1,59.2,29.92,NW,318,5.0,7.0,66,0.00,,,0.03,Wunderground v.1.15,2013-05-05 23:37:00,
2013-05-05 19:38:00,71.0,59.1,29.92,West,260,3.0,7.0,66,0.00,,,0.03,Wunderground v.1.15,2013-05-05 23:38:00,
2013-05-05 19:39:00,71.0,59.1,29.92,SSW,199,1.0,7.0,66,0.00,,,0.03,Wunderground v.1.15,2013-05-05 23:39:00,
2013-05-05 19:41:00,70.9,58.5,29.92,WSW,256,2.0,8.0,65,0.00,,,0.03,Wunderground v.1.15,2013-05-05 23:41:00,
2013-05-05 19:42:00,70.8,58.9,29.92,WNW,297,3.0,8.0,66,0.00,,,0.03,Wunderground v.1.15,2013-05-05 23:42:00,
2013-05-05 19:43:00,70.7,58.4,29.92,WNW,303,4.0,8.0,65,0.00,,,0.03,Wunderground v.1.15,2013-05-05 23:43:00,
2013-05-05 19:44:00,70.7,58.4,29.92,WNW,283,4.0,8.0,65,0.00,,,0.03,Wunderground v.1.15,2013-05-05 23:44:00,
2013-05-05 19:46:00,70.6,58.7,29.92,WNW,291,8.0,8.0,66,0.00,,,0.03,Wunderground v.1.15,2013-05-05 23:46:00,
2013-05-05 19:48:00,70.5,58.6,29.92,NW,304,5.0,8.0,66,0.00,,,0.03,Wunderground v.1.15,2013-05-05 23:48:00,
2013-05-05 19:49:00,70.5,58.6,29.92,NW,307,2.0,8.0,66,0.00,,,0.03,Wunderground v.1.15,2013-05-05 23:49:00,
2013-05-05 19:50:00,70.4,58.5,29.92,NW,304,5.0,6.0,66,0.00,,,0.03,Wunderground v.1.15,2013-05-05 23:50:00,
2013-05-05 19:52:00,70.3,58.4,29.92,WNW,298,3.0,7.0,66,0.00,,,0.03,Wunderground v.1.15,2013-05-05 23:52:00,
2013-05-05 19:53:00,70.2,57.9,29.92,NW,313,9.0,9.0,65,0.00,,,0.03,Wunderground v.1.15,2013-05-05 23:53:00,
2013-05-05 19:54:00,70.2,57.9,29.92,WNW,293,6.0,9.0,65,0.00,,,0.03,Wunderground v.1.15,2013-05-05 23:54:00,
2013-05-05 19:55:00,70.1,58.2,29.92,NW,313,4.0,9.0,66,0.00,,,0.03,Wunderground v.1.15,2013-05-05 23:55:00,
2013-05-05 19:57:00,70.0,58.1,29.92,NW,315,4.0,9.0,66,0.00,,,0.03,Wunderground v.1.15,2013-05-05 23:57:00,
2013-05-05 19:58:00,69.9,58.0,29.92,NW,316,2.0,10.0,66,0.00,,,0.03,Wunderground v.1.15,2013-05-05 23:58:00,
2013-05-05 19:59:00,69.9,58.0,29.92,NNW,340,4.0,10.0,66,0.00,,,0.03,Wunderground v.1.15,2013-05-05 23:59:00,
2013-05-05 20:00:00,69.8,58.3,29.92,West,272,2.0,5.0,67,0.00,,,0.03,Wunderground v.1.15,2013-05-06 00:00:00,
2013-05-05 20:02:00,69.7,58.3,29.92,West,264,2.0,7.0,67,0.00,,,0.03,Wunderground v.1.15,2013-05-06 00:02:00,
2013-05-05 20:03:00,69.6,58.2,29.93,SW,236,2.0,7.0,67,0.00,,,0.03,Wunderground v.1.15,2013-05-06 00:03:00,
2013-05-05 20:04:00,69.6,58.2,29.93,West,271,2.0,7.0,67,0.00,,,0.03,Wunderground v.1.15,2013-05-06 00:04:00,
2013-05-05 20:05:00,69.6,58.2,29.92,NW,305,5.0,7.0,67,0.00,,,0.03,Wunderground v.1.15,2013-05-06 00:05:00,
2013-05-05 20:07:00,69.6,58.6,29.93,WNW,290,2.0,7.0,68,0.00,,,0.03,Wunderground v.1.15,2013-05-06 00:07:00,
2013-05-05 20:09:00,69.5,58.5,29.92,WNW,290,3.0,7.0,68,0.00,,,0.03,Wunderground v.1.15,2013-05-06 00:09:00,
2013-05-05 20:10:00,69.4,58.4,29.93,WNW,294,4.0,5.0,68,0.00,,,0.03,Wunderground v.1.15,2013-05-06 00:10:00,
2013-05-05 20:12:00,69.4,58.4,29.92,West,260,1.0,7.0,68,0.00,,,0.03,Wunderground v.1.15,2013-05-06 00:12:00,
2013-05-05 20:14:00,69.3,58.3,29.92,WNW,293,3.0,7.0,68,0.00,,,0.03,Wunderground v.1.15,2013-05-06 00:14:00,
2013-05-05 20:15:00,69.2,58.6,29.92,West,278,2.0,7.0,69,0.00,,,0.03,Wunderground v.1.15,2013-05-06 00:15:00,
2013-05-05 20:16:00,69.2,58.6,29.92,WNW,289,2.0,7.0,69,0.00,,,0.03,Wunderground v.1.15,2013-05-06 00:16:00,
2013-05-05 20:17:00,69.2,58.6,29.93,WNW,287,2.0,7.0,69,0.00,,,0.03,Wunderground v.1.15,2013-05-06 00:17:00,
2013-05-05 20:19:00,69.1,58.5,29.93,West,266,3.0,7.0,69,0.00,,,0.03,Wunderground v.1.15,2013-05-06 00:19:00,
2013-05-05 20:20:00,69.1,58.5,29.93,NNW,337,2.0,5.0,69,0.00,,,0.03,Wunderground v.1.15,2013-05-06 00:20:00,
2013-05-05 20:21:00,69.0,58.4,29.93,West,281,2.0,5.0,69,0.00,,,0.03,Wunderground v.1.15,2013-05-06 00:21:00,
2013-05-05 20:22:00,69.0,58.4,29.93,West,264,3.0,5.0,69,0.00,,,0.03,Wunderground v.1.15,2013-05-06 00:22:00,
2013-05-05 20:24:00,69.0,58.4,29.93,WNW,283,6.0,6.0,69,0.00,,,0.03,Wunderground v.1.15,2013-05-06 00:24:00,
2013-05-05 20:25:00,69.0,58.4,29.93,West,262,5.0,6.0,69,0.00,,,0.03,Wunderground v.1.15,2013-05-06 00:25:00,
2013-05-05 20:26:00,69.0,58.4,29.93,WNW,288,6.0,7.0,69,0.00,,,0.03,Wunderground v.1.15,2013-05-06 00:26:00,
2013-05-05 20:27:00,69.0,58.4,29.93,WNW,288,3.0,7.0,69,0.00,,,0.03,Wunderground v.1.15,2013-05-06 00:27:00,
2013-05-05 20:29:00,69.0,58.4,29.93,WSW,249,2.0,8.0,69,0.00,,,0.03,Wunderground v.1.15,2013-05-06 00:29:00,
2013-05-05 20:30:00,69.0,58.4,29.93,West,280,2.0,5.0,69,0.00,,,0.03,Wunderground v.1.15,2013-05-06 00:30:00,
2013-05-05 20:31:00,69.0,58.4,29.93,WSW,255,1.0,5.0,69,0.00,,,0.03,Wunderground v.1.15,2013-05-06 00:31:00,
2013-05-05 20:32:00,69.0,58.4,29.93,West,267,3.0,5.0,69,0.00,,,0.03,Wunderground v.1.15,2013-05-06 00:32:00,
2013-05-05 20:34:00,69.0,58.4,29.93,West,263,2.0,6.0,69,0.00,,,0.03,Wunderground v.1.15,2013-05-06 00:34:00,
2013-05-05 20:36:00,68.9,58.3,29.93,West,274,1.0,6.0,69,0.00,,,0.03,Wunderground v.1.15,2013-05-06 00:36:00,
2013-05-05 20:37:00,68.9,58.3,29.93,NW,304,4.0,6.0,69,0.00,,,0.03,Wunderground v.1.15,2013-05-06 00:37:00,
2013-05-05 20:39:00,68.9,58.7,29.93,WNW,302,1.0,6.0,70,0.00,,,0.03,Wunderground v.1.15,2013-05-06 00:39:00,
2013-05-05 20:41:00,68.8,58.6,29.93,West,272,1.0,3.0,70,0.00,,,0.03,Wunderground v.1.15,2013-05-06 00:41:00,
2013-05-05 20:42:00,68.8,58.6,29.93,West,272,1.0,3.0,70,0.00,,,0.03,Wunderground v.1.15,2013-05-06 00:42:00,
2013-05-05 20:44:00,68.8,58.6,29.93,West,277,3.0,3.0,70,0.00,,,0.03,Wunderground v.1.15,2013-05-06 00:44:00,
2013-05-05 20:46:00,68.7,58.5,29.93,West,281,0.0,3.0,70,0.00,,,0.03,Wunderground v.1.15,2013-05-06 00:46:00,
2013-05-05 20:47:00,68.7,58.5,29.93,West,281,1.0,3.0,70,0.00,,,0.03,Wunderground v.1.15,2013-05-06 00:47:00,
2013-05-05 20:49:00,68.6,58.8,29.93,West,278,3.0,3.0,71,0.00,,,0.03,Wunderground v.1.15,2013-05-06 00:49:00,
2013-05-05 20:52:00,68.6,58.8,29.93,WSW,257,2.0,3.0,71,0.00,,,0.03,Wunderground v.1.15,2013-05-06 00:52:00,
2013-05-05 20:53:00,68.7,58.9,29.94,West,276,2.0,5.0,71,0.00,,,0.03,Wunderground v.1.15,2013-05-06 00:53:00,
2013-05-05 20:54:00,68.7,58.9,29.94,NW,308,2.0,6.0,71,0.00,,,0.03,Wunderground v.1.15,2013-05-06 00:54:00,
2013-05-05 20:57:00,68.7,58.9,29.94,West,259,1.0,6.0,71,0.00,,,0.03,Wunderground v.1.15,2013-05-06 00:57:00,
2013-05-05 20:58:00,68.7,58.9,29.94,West,272,5.0,6.0,71,0.00,,,0.03,Wunderground v.1.15,2013-05-06 00:58:00,
2013-05-05 21:00:00,68.7,58.9,29.94,WSW,247,2.0,4.0,71,0.00,,,0.03,Wunderground v.1.15,2013-05-06 01:00:00,
2013-05-05 21:02:00,68.7,58.9,29.94,WNW,296,4.0,4.0,71,0.00,,,0.03,Wunderground v.1.15,2013-05-06 01:02:00,
2013-05-05 21:03:00,68.8,58.6,29.94,SW,236,1.0,6.0,70,0.00,,,0.03,Wunderground v.1.15,2013-05-06 01:03:00,
2013-05-05 21:05:00,68.8,59.0,29.94,West,266,1.0,6.0,71,0.00,,,0.03,Wunderground v.1.15,2013-05-06 01:05:00,
2013-05-05 21:07:00,68.7,58.9,29.94,SW,232,1.0,6.0,71,0.00,,,0.03,Wunderground v.1.15,2013-05-06 01:07:00,
2013-05-05 21:08:00,68.7,58.9,29.93,SW,232,1.0,6.0,71,0.00,,,0.03,Wunderground v.1.15,2013-05-06 01:08:00,
2013-05-05 21:10:00,68.7,58.9,29.93,WSW,250,2.0,4.0,71,0.00,,,0.03,Wunderground v.1.15,2013-05-06 01:10:00,
2013-05-05 21:12:00,68.7,58.9,29.94,WSW,245,2.0,5.0,71,0.00,,,0.03,Wunderground v.1.15,2013-05-06 01:12:00,
2013-05-05 21:13:00,68.7,58.9,29.94,SW,221,4.0,5.0,71,0.00,,,0.03,Wunderground v.1.15,2013-05-06 01:13:00,
2013-05-05 21:14:00,68.7,58.9,29.94,West,262,2.0,5.0,71,0.00,,,0.03,Wunderground v.1.15,2013-05-06 01:14:00,
2013-05-05 21:15:00,68.7,59.3,29.94,West,281,1.0,5.0,72,0.00,,,0.03,Wunderground v.1.15,2013-05-06 01:15:00,
2013-05-05 21:17:00,68.7,59.3,29.94,WSW,239,1.0,5.0,72,0.00,,,0.03,Wunderground v.1.15,2013-05-06 01:17:00,
2013-05-05 21:18:00,68.6,59.2,29.94,WSW,252,2.0,5.0,72,0.00,,,0.03,Wunderground v.1.15,2013-05-06 01:18:00,
2013-05-05 21:19:00,68.6,59.2,29.94,SW,229,2.0,5.0,72,0.00,,,0.03,Wunderground v.1.15,2013-05-06 01:19:00,
2013-05-05 21:20:00,68.6,59.2,29.94,West,262,1.0,4.0,72,0.00,,,0.03,Wunderground v.1.15,2013-05-06 01:20:00,
2013-05-05 21:22:00,68.6,59.2,29.94,WSW,243,1.0,5.0,72,0.00,,,0.03,Wunderground v.1.15,2013-05-06 01:22:00,
2013-05-05 21:23:00,68.6,59.2,29.94,WSW,254,2.0,5.0,72,0.00,,,0.03,Wunderground v.1.15,2013-05-06 01:23:00,
2013-05-05 21:24:00,68.6,59.2,29.94,SW,226,2.0,5.0,72,0.00,,,0.03,Wunderground v.1.15,2013-05-06 01:24:00,
2013-05-05 21:25:00,68.5,59.1,29.94,West,278,4.0,5.0,72,0.00,,,0.03,Wunderground v.1.15,2013-05-06 01:25:00,
2013-05-05 21:27:00,68.5,58.7,29.94,West,279,3.0,7.0,71,0.00,,,0.03,Wunderground v.1.15,2013-05-06 01:27:00,
2013-05-05 21:28:00,68.5,58.7,29.94,West,259,3.0,7.0,71,0.00,,,0.03,Wunderground v.1.15,2013-05-06 01:28:00,
2013-05-05 21:30:00,68.6,58.8,29.94,West,276,6.0,6.0,71,0.00,,,0.03,Wunderground v.1.15,2013-05-06 01:30:00,
2013-05-05 21:33:00,68.7,58.9,29.94,West,264,1.0,6.0,71,0.00,,,0.03,Wunderground v.1.15,2013-05-06 01:33:00,
2013-05-05 21:35:00,68.7,58.9,29.94,WSW,257,6.0,6.0,71,0.00,,,0.03,Wunderground v.1.15,2013-05-06 01:35:00,
2013-05-05 21:38:00,68.7,59.3,29.94,WSW,246,2.0,8.0,72,0.00,,,0.03,Wunderground v.1.15,2013-05-06 01:38:00,
2013-05-05 21:39:00,68.7,59.3,29.94,WSW,247,3.0,8.0,72,0.00,,,0.03,Wunderground v.1.15,2013-05-06 01:39:00,
2013-05-05 21:40:00,68.7,59.3,29.94,SW,235,4.0,6.0,72,0.00,,,0.03,Wunderground v.1.15,2013-05-06 01:40:00,
2013-05-05 21:43:00,68.6,59.2,29.94,West,259,4.0,6.0,72,0.00,,,0.03,Wunderground v.1.15,2013-05-06 01:43:00,
2013-05-05 21:44:00,68.7,59.3,29.94,SW,236,6.0,8.0,72,0.00,,,0.03,Wunderground v.1.15,2013-05-06 01:44:00,
2013-05-05 21:45:00,68.7,59.3,29.94,WSW,250,3.0,8.0,72,0.00,,,0.03,Wunderground v.1.15,2013-05-06 01:45:00,
2013-05-05 21:46:00,68.7,59.3,29.94,West,281,3.0,8.0,72,0.00,,,0.03,Wunderground v.1.15,2013-05-06 01:46:00,
2013-05-05 21:49:00,68.7,59.3,29.94,SW,232,2.0,8.0,72,0.00,,,0.03,Wunderground v.1.15,2013-05-06 01:49:00,
2013-05-05 21:50:00,68.7,59.3,29.94,WSW,246,0.0,3.0,72,0.00,,,0.03,Wunderground v.1.15,2013-05-06 01:50:00,
2013-05-05 21:51:00,68.6,59.2,29.94,SW,225,2.0,3.0,72,0.00,,,0.03,Wunderground v.1.15,2013-05-06 01:51:00,
2013-05-05 21:54:00,68.6,59.2,29.94,SW,224,3.0,6.0,72,0.00,,,0.03,Wunderground v.1.15,2013-05-06 01:54:00,
2013-05-05 21:55:00,68.6,59.2,29.94,WSW,253,3.0,6.0,72,0.00,,,0.03,Wunderground v.1.15,2013-05-06 01:55:00,
2013-05-05 21:56:00,68.6,59.2,29.94,West,260,3.0,6.0,72,0.00,,,0.03,Wunderground v.1.15,2013-05-06 01:56:00,
2013-05-05 21:59:00,68.6,59.2,29.94,West,278,2.0,6.0,72,0.00,,,0.03,Wunderground v.1.15,2013-05-06 01:59:00,
2013-05-05 22:00:00,68.6,59.2,29.94,West,274,3.0,3.0,72,0.00,,,0.03,Wunderground v.1.15,2013-05-06 02:00:00,
2013-05-05 22:01:00,68.5,59.1,29.94,WSW,249,2.0,4.0,72,0.00,,,0.03,Wunderground v.1.15,2013-05-06 02:01:00,
2013-05-05 22:04:00,68.5,59.1,29.94,WSW,249,4.0,5.0,72,0.00,,,0.03,Wunderground v.1.15,2013-05-06 02:04:00,
2013-05-05 22:05:00,68.5,59.5,29.95,WSW,246,2.0,6.0,73,0.00,,,0.03,Wunderground v.1.15,2013-05-06 02:05:00,
2013-05-05 22:06:00,68.5,59.1,29.95,WSW,255,3.0,6.0,72,0.00,,,0.03,Wunderground v.1.15,2013-05-06 02:06:00,
2013-05-05 22:09:00,68.6,59.6,29.95,SW,232,2.0,6.0,73,0.00,,,0.03,Wunderground v.1.15,2013-05-06 02:09:00,
2013-05-05 22:10:00,68.6,59.6,29.95,WSW,248,1.0,3.0,73,0.00,,,0.03,Wunderground v.1.15,2013-05-06 02:10:00,
2013-05-05 22:12:00,68.5,59.5,29.95,West,261,1.0,3.0,73,0.00,,,0.03,Wunderground v.1.15,2013-05-06 02:12:00,
2013-05-05 22:14:00,68.5,59.5,29.95,WSW,249,1.0,5.0,73,0.00,,,0.03,Wunderground v.1.15,2013-05-06 02:14:00,
2013-05-05 22:15:00,68.5,59.5,29.95,WSW,249,1.0,5.0,73,0.00,,,0.03,Wunderground v.1.15,2013-05-06 02:15:00,
2013-05-05 22:17:00,68.5,59.9,29.95,West,263,2.0,5.0,74,0.00,,,0.03,Wunderground v.1.15,2013-05-06 02:17:00,
2013-05-05 22:19:00,68.5,59.9,29.95,SW,226,2.0,4.0,74,0.00,,,0.03,Wunderground v.1.15,2013-05-06 02:19:00,
2013-05-05 22:20:00,68.5,59.9,29.95,SW,236,4.0,4.0,74,0.00,,,0.03,Wunderground v.1.15,2013-05-06 02:20:00,
2013-05-05 22:21:00,68.5,59.9,29.95,WNW,288,1.0,5.0,74,0.00,,,0.03,Wunderground v.1.15,2013-05-06 02:21:00,
2013-05-05 22:22:00,68.5,59.9,29.95,WSW,257,2.0,6.0,74,0.00,,,0.03,Wunderground v.1.15,2013-05-06 02:22:00,
2013-05-05 22:24:00,68.5,59.5,29.95,WSW,239,2.0,6.0,73,0.00,,,0.03,Wunderground v.1.15,2013-05-06 02:24:00,
2013-05-05 22:25:00,68.5,59.5,29.95,WSW,250,2.0,6.0,73,0.00,,,0.03,Wunderground v.1.15,2013-05-06 02:25:00,
2013-05-05 22:26:00,68.5,59.5,29.95,WSW,249,4.0,6.0,73,0.00,,,0.03,Wunderground v.1.15,2013-05-06 02:26:00,
2013-05-05 22:28:00,68.5,59.5,29.95,West,263,4.0,6.0,73,0.00,,,0.03,Wunderground v.1.15,2013-05-06 02:28:00,
2013-05-05 22:29:00,68.6,59.6,29.95,SW,235,6.0,8.0,73,0.00,,,0.03,Wunderground v.1.15,2013-05-06 02:29:00,
2013-05-05 22:30:00,68.6,59.6,29.95,WSW,246,3.0,8.0,73,0.00,,,0.03,Wunderground v.1.15,2013-05-06 02:30:00,
2013-05-05 22:31:00,68.6,59.6,29.95,WSW,250,3.0,8.0,73,0.00,,,0.03,Wunderground v.1.15,2013-05-06 02:31:00,
2013-05-05 22:33:00,68.7,59.7,29.95,WSW,239,3.0,8.0,73,0.00,,,0.03,Wunderground v.1.15,2013-05-06 02:33:00,
2013-05-05 22:35:00,68.7,59.7,29.95,WSW,246,3.0,8.0,73,0.00,,,0.03,Wunderground v.1.15,2013-05-06 02:35:00,
2013-05-05 22:36:00,68.7,59.7,29.95,WSW,252,5.0,8.0,73,0.00,,,0.03,Wunderground v.1.15,2013-05-06 02:36:00,
2013-05-05 22:39:00,68.8,60.2,29.95,SSW,208,5.0,9.0,74,0.00,,,0.03,Wunderground v.1.15,2013-05-06 02:39:00,
2013-05-05 22:40:00,68.8,60.2,29.95,SW,229,4.0,4.0,74,0.00,,,0.03,Wunderground v.1.15,2013-05-06 02:40:00,
2013-05-05 22:41:00,68.8,60.2,29.95,WSW,241,6.0,7.0,74,0.00,,,0.03,Wunderground v.1.15,2013-05-06 02:41:00,
2013-05-05 22:44:00,68.8,60.2,29.95,SSW,198,2.0,7.0,74,0.00,,,0.03,Wunderground v.1.15,2013-05-06 02:44:00,
2013-05-05 22:45:00,68.9,60.3,29.95,SW,223,2.0,7.0,74,0.00,,,0.03,Wunderground v.1.15,2013-05-06 02:45:00,
2013-05-05 22:46:00,68.8,60.2,29.95,SW,232,0.0,7.0,74,0.00,,,0.03,Wunderground v.1.15,2013-05-06 02:46:00,
2013-05-05 22:49:00,68.8,60.2,29.95,WSW,248,5.0,5.0,74,0.00,,,0.03,Wunderground v.1.15,2013-05-06 02:49:00,
2013-05-05 22:50:00,68.8,60.2,29.95,WSW,249,4.0,7.0,74,0.00,,,0.03,Wunderground v.1.15,2013-05-06 02:50:00,
2013-05-05 22:51:00,68.9,60.3,29.95,SW,233,3.0,7.0,74,0.00,,,0.03,Wunderground v.1.15,2013-05-06 02:51:00,
2013-05-05 22:52:00,68.9,60.3,29.95,West,262,3.0,7.0,74,0.00,,,0.03,Wunderground v.1.15,2013-05-06 02:52:00,
2013-05-05 22:55:00,68.9,60.3,29.95,SW,219,5.0,7.0,74,0.00,,,0.03,Wunderground v.1.15,2013-05-06 02:55:00,
2013-05-05 22:56:00,68.9,60.3,29.95,West,271,3.0,7.0,74,0.00,,,0.03,Wunderground v.1.15,2013-05-06 02:56:00,
2013-05-05 22:57:00,68.9,60.3,29.95,SW,223,4.0,7.0,74,0.00,,,0.03,Wunderground v.1.15,2013-05-06 02:57:00,
2013-05-05 23:00:00,68.9,60.6,29.95,WSW,243,4.0,6.0,75,0.00,,,0.03,Wunderground v.1.15,2013-05-06 03:00:00,
2013-05-05 23:01:00,68.9,60.6,29.95,SW,223,4.0,6.0,75,0.00,,,0.03,Wunderground v.1.15,2013-05-06 03:01:00,
2013-05-05 23:02:00,68.9,60.6,29.95,West,274,2.0,6.0,75,0.00,,,0.03,Wunderground v.1.15,2013-05-06 03:02:00,
2013-05-05 23:05:00,68.9,60.6,29.95,SW,215,2.0,6.0,75,0.00,,,0.03,Wunderground v.1.15,2013-05-06 03:05:00,
2013-05-05 23:06:00,68.8,60.6,29.95,WSW,249,1.0,6.0,75,0.00,,,0.03,Wunderground v.1.15,2013-05-06 03:06:00,
2013-05-05 23:07:00,68.8,60.6,29.95,SW,226,4.0,6.0,75,0.00,,,0.03,Wunderground v.1.15,2013-05-06 03:07:00,
2013-05-05 23:10:00,68.8,60.6,29.95,WSW,248,3.0,4.0,75,0.00,,,0.03,Wunderground v.1.15,2013-05-06 03:10:00,
2013-05-05 23:11:00,68.8,60.9,29.95,SW,232,1.0,4.0,76,0.00,,,0.03,Wunderground v.1.15,2013-05-06 03:11:00,
2013-05-05 23:12:00,68.8,60.9,29.95,WSW,252,4.0,5.0,76,0.00,,,0.03,Wunderground v.1.15,2013-05-06 03:12:00,
2013-05-05 23:15:00,68.9,60.6,29.95,SW,225,6.0,8.0,75,0.00,,,0.03,Wunderground v.1.15,2013-05-06 03:15:00,
2013-05-05 23:16:00,68.9,60.3,29.95,WSW,242,8.0,8.0,74,0.00,,,0.03,Wunderground v.1.15,2013-05-06 03:16:00,
2013-05-05 23:17:00,68.9,60.3,29.95,WSW,252,1.0,8.0,74,0.00,,,0.03,Wunderground v.1.15,2013-05-06 03:17:00,
2013-05-05 23:20:00,68.9,60.3,29.95,WSW,248,4.0,6.0,74,0.00,,,0.03,Wunderground v.1.15,2013-05-06 03:20:00,
2013-05-05 23:21:00,68.9,60.3,29.95,West,272,4.0,6.0,74,0.00,,,0.03,Wunderground v.1.15,2013-05-06 03:21:00,
2013-05-05 23:22:00,68.9,60.3,29.95,WSW,239,5.0,7.0,74,0.00,,,0.03,Wunderground v.1.15,2013-05-06 03:22:00,
2013-05-05 23:23:00,69.0,60.4,29.95,West,276,5.0,7.0,74,0.00,,,0.03,Wunderground v.1.15,2013-05-06 03:23:00,
2013-05-05 23:25:00,69.1,60.1,29.95,SW,236,3.0,7.0,73,0.00,,,0.03,Wunderground v.1.15,2013-05-06 03:25:00,
2013-05-05 23:26:00,69.1,60.1,29.95,SSW,212,3.0,7.0,73,0.00,,,0.03,Wunderground v.1.15,2013-05-06 03:26:00,
2013-05-05 23:27:00,69.1,60.1,29.95,SW,236,2.0,7.0,73,0.00,,,0.03,Wunderground v.1.15,2013-05-06 03:27:00,
2013-05-05 23:28:00,69.2,60.2,29.95,WSW,246,4.0,7.0,73,0.00,,,0.03,Wunderground v.1.15,2013-05-06 03:28:00,
2013-05-05 23:31:00,69.3,59.9,29.95,SW,222,2.0,7.0,72,0.00,,,0.03,Wunderground v.1.15,2013-05-06 03:31:00,
2013-05-05 23:32:00,69.3,59.9,29.95,WSW,243,4.0,7.0,72,0.00,,,0.03,Wunderground v.1.15,2013-05-06 03:32:00,
2013-05-05 23:33:00,69.3,60.3,29.95,West,263,5.0,7.0,73,0.00,,,0.03,Wunderground v.1.15,2013-05-06 03:33:00,
2013-05-05 23:36:00,69.4,60.4,29.95,WSW,250,5.0,7.0,73,0.00,,,0.03,Wunderground v.1.15,2013-05-06 03:36:00,
2013-05-05 23:38:00,69.4,60.4,29.95,West,259,2.0,7.0,73,0.00,,,0.03,Wunderground v.1.15,2013-05-06 03:38:00,
2013-05-05 23:41:00,69.3,60.3,29.95,SW,225,4.0,5.0,73,0.00,,,0.03,Wunderground v.1.15,2013-05-06 03:41:00,
2013-05-05 23:43:00,69.3,60.3,29.95,West,281,4.0,6.0,73,0.00,,,0.03,Wunderground v.1.15,2013-05-06 03:43:00,
2013-05-05 23:46:00,69.3,59.9,29.94,WSW,255,4.0,7.0,72,0.00,,,0.03,Wunderground v.1.15,2013-05-06 03:46:00,
2013-05-05 23:48:00,69.3,59.5,29.94,WSW,242,4.0,8.0,71,0.00,,,0.03,Wunderground v.1.15,2013-05-06 03:48:00,
2013-05-05 23:51:00,69.4,60.0,29.94,SW,217,4.0,6.0,72,0.00,,,0.03,Wunderground v.1.15,2013-05-06 03:51:00,
2013-05-05 23:52:00,69.4,60.0,29.94,SW,232,3.0,6.0,72,0.00,,,0.03,Wunderground v.1.15,2013-05-06 03:52:00,
2013-05-05 23:53:00,69.4,60.0,29.94,SW,229,3.0,6.0,72,0.00,,,0.03,Wunderground v.1.15,2013-05-06 03:53:00,
2013-05-05 23:54:00,69.4,60.0,29.94,WSW,248,6.0,8.0,72,0.00,,,0.03,Wunderground v.1.15,2013-05-06 03:54:00,
2013-05-05 23:56:00,69.4,60.4,29.94,WSW,239,5.0,8.0,73,0.00,,,0.03,Wunderground v.1.15,2013-05-06 03:56:00,
2013-05-05 23:57:00,69.4,60.4,29.94,WSW,240,3.0,8.0,73,0.00,,,0.03,Wunderground v.1.15,2013-05-06 03:57:00,
2013-05-05 23:58:00,69.4,60.4,29.95,WSW,248,3.0,8.0,73,0.00,,,0.03,Wunderground v.1.15,2013-05-06 03:58:00,
2013-05-05 23:59:00,69.3,60.3,29.95,SW,229,2.0,8.0,73,0.00,,,0.03,Wunderground v.1.15,2013-05-06 03:59:00,